Observation data for Endee on 05/24/2019      Previous  Date  Next       Current Mesonet Observations  Soil Data  Daily Summary Page  Observations in Plain Language
KEN1 240500Z 32005KT 10/10 A2999 RMK A01 T01010095  RH  096%=      5-min Rain = 0
KEN1 240501Z 30006KT 10/09 A2999 RMK A01 T00990092  RH  096%=      5-min Rain = 0
KEN1 240502Z 31005KT 10/09 A2999 RMK A01 T00980092  RH  096%=      5-min Rain = 0
KEN1 240503Z 33002KT 10/09 A2998 RMK A01 T00980092  RH  096%=      5-min Rain = 0
KEN1 240504Z 01001KT 10/09 A2998 RMK A01 T00980093  RH  097%=      5-min Rain = 0
KEN1 240505Z 01001KT 10/09 A2998 RMK A01 T00980093  RH  097%=      5-min Rain = 0
KEN1 240506Z 35002KT 10/09 A2998 RMK A01 T00980093  RH  097%=      5-min Rain = 0
KEN1 240507Z 32002KT 10/09 A2998 RMK A01 T00980093  RH  097%=      5-min Rain = 0
KEN1 240508Z 30002KT 10/09 A2998 RMK A01 T00970092  RH  097%=      5-min Rain = 0
KEN1 240509Z 30002KT 10/09 A2998 RMK A01 T00960091  RH  096%=      5-min Rain = 0
KEN1 240510Z 30002KT 10/09 A2998 RMK A01 T00960091  RH  097%=      5-min Rain = 0
KEN1 240511Z 31003KT 10/09 A2998 RMK A01 T00960092  RH  097%=      5-min Rain = 0
KEN1 240512Z 32004KT 10/09 A2998 RMK A01 T00970092  RH  097%=      5-min Rain = 0
KEN1 240513Z 31005KT 10/09 A2998 RMK A01 T00970092  RH  097%=      5-min Rain = 0
KEN1 240514Z 31004KT 10/09 A2998 RMK A01 T00970092  RH  097%=      5-min Rain = 0
KEN1 240515Z 32004KT 10/09 A2998 RMK A01 T00960091  RH  097%=      5-min Rain = 0
KEN1 240516Z 32005KT 10/09 A2998 RMK A01 T00950090  RH  097%=      5-min Rain = 0
KEN1 240517Z 32005KT 10/09 A2998 RMK A01 T00950090  RH  097%=      5-min Rain = 0
KEN1 240518Z 31004KT 10/09 A2998 RMK A01 T00950090  RH  097%=      5-min Rain = 0
KEN1 240519Z 31004KT 10/09 A2998 RMK A01 T00950090  RH  097%=      5-min Rain = 0
KEN1 240520Z 31004KT 09/09 A2998 RMK A01 T00940089  RH  097%=      5-min Rain = 0
KEN1 240521Z 32003KT 09/09 A2998 RMK A01 T00940089  RH  097%=      5-min Rain = 0
KEN1 240522Z 32004KT 09/09 A2998 RMK A01 T00940090  RH  097%=      5-min Rain = 0
KEN1 240523Z 31004KT 09/09 A2998 RMK A01 T00940090  RH  097%=      5-min Rain = 0
KEN1 240524Z 32003KT 09/09 A2998 RMK A01 T00940090  RH  097%=      5-min Rain = 0
KEN1 240525Z 33005KT 09/09 A2998 RMK A01 T00940090  RH  097%=      5-min Rain = 0
KEN1 240526Z 33006KT 10/09 A2998 RMK A01 T00950091  RH  097%=      5-min Rain = 0
KEN1 240527Z 33005KT 10/09 A2998 RMK A01 T00950091  RH  097%=      5-min Rain = 0
KEN1 240528Z 34006KT 10/09 A2997 RMK A01 T00950091  RH  097%=      5-min Rain = 0
KEN1 240529Z 34006KT 10/09 A2997 RMK A01 T00950091  RH  097%=      5-min Rain = 0
KEN1 240530Z 33006KT 10/09 A2997 RMK A01 T00950092  RH  097%=      5-min Rain = 0
KEN1 240531Z 33005KT 10/09 A2997 RMK A01 T00960092  RH  097%=      5-min Rain = 0
KEN1 240532Z 33005KT 10/09 A2997 RMK A01 T00960092  RH  097%=      5-min Rain = 0
KEN1 240533Z 33005KT 10/09 A2997 RMK A01 T00950091  RH  097%=      5-min Rain = 0
KEN1 240534Z 33006KT 10/09 A2997 RMK A01 T00950091  RH  097%=      5-min Rain = 0
KEN1 240535Z 32007KT 09/09 A2997 RMK A01 T00940090  RH  097%=      5-min Rain = 0
KEN1 240536Z 32006KT 09/09 A2997 RMK A01 T00930089  RH  097%=      5-min Rain = 0
KEN1 240537Z 32005KT 09/09 A2997 RMK A01 T00930089  RH  097%=      5-min Rain = 0
KEN1 240538Z 32004KT 09/09 A2997 RMK A01 T00930089  RH  097%=      5-min Rain = 0
KEN1 240539Z 31004KT 09/09 A2997 RMK A01 T00930089  RH  097%=      5-min Rain = 0
KEN1 240540Z 31004KT 09/09 A2997 RMK A01 T00920088  RH  097%=      5-min Rain = 0
KEN1 240541Z 31004KT 09/09 A2997 RMK A01 T00920088  RH  097%=      5-min Rain = 0
KEN1 240542Z 30004KT 09/09 A2997 RMK A01 T00920088  RH  097%=      5-min Rain = 0
KEN1 240543Z 31005KT 09/09 A2997 RMK A01 T00920088  RH  097%=      5-min Rain = 0
KEN1 240544Z 32005KT 09/09 A2997 RMK A01 T00920088  RH  097%=      5-min Rain = 0
KEN1 240545Z 31003KT 09/09 A2997 RMK A01 T00920088  RH  097%=      5-min Rain = 0
KEN1 240546Z 31002KT 09/09 A2997 RMK A01 T00920088  RH  097%=      5-min Rain = 0
KEN1 240547Z 30001KT 09/09 A2997 RMK A01 T00920088  RH  097%=      5-min Rain = 0
KEN1 240548Z 00000KT 09/09 A2997 RMK A01 T00920088  RH  097%=      5-min Rain = 0
KEN1 240549Z 26000KT 09/09 A2997 RMK A01 T00910087  RH  097%=      5-min Rain = 0
KEN1 240550Z 03000KT 09/09 A2997 RMK A01 T00900086  RH  097%=      5-min Rain = 0
KEN1 240551Z 04003KT 09/08 A2998 RMK A01 T00870082  RH  097%=      5-min Rain = 0
KEN1 240552Z 04005KT 08/08 A2998 RMK A01 T00840078  RH  096%=      5-min Rain = 0
KEN1 240553Z 06005KT 08/08 A2998 RMK A01 T00810075  RH  096%=      5-min Rain = 0
KEN1 240554Z 06005KT 08/07 A2998 RMK A01 T00790074  RH  096%=      5-min Rain = 0
KEN1 240555Z 04005KT 08/07 A2998 RMK A01 T00790074  RH  097%=      5-min Rain = 0
KEN1 240556Z 03004KT 08/07 A2998 RMK A01 T00790074  RH  097%=      5-min Rain = 0
KEN1 240557Z 06002KT 08/08 A2997 RMK A01 T00790075  RH  097%=      5-min Rain = 0
KEN1 240558Z 11001KT 08/08 A2997 RMK A01 T00810077  RH  097%=      5-min Rain = 0
KEN1 240559Z 09002KT 08/08 A2997 RMK A01 T00810077  RH  097%=      5-min Rain = 0
KEN1 240600Z 03002KT 08/08 A2998 RMK A01 T00800076  RH  097%=      5-min Rain = 0
KEN1 240601Z 03003KT 08/08 A2998 RMK A01 T00790075  RH  097%=      5-min Rain = 0
KEN1 240602Z 03002KT 08/08 A2997 RMK A01 T00800077  RH  098%=      5-min Rain = 0
KEN1 240603Z 03001KT 08/08 A2997 RMK A01 T00820079  RH  098%=      5-min Rain = 0
KEN1 240604Z 00000KT 08/08 A2997 RMK A01 T00810078  RH  098%=      5-min Rain = 0
KEN1 240605Z 02000KT 08/08 A2997 RMK A01 T00810078  RH  098%=      5-min Rain = 0
KEN1 240606Z 01001KT 08/08 A2997 RMK A01 T00810078  RH  098%=      5-min Rain = 0
KEN1 240607Z 00001KT 08/08 A2997 RMK A01 T00820079  RH  098%=      5-min Rain = 0
KEN1 240608Z 35001KT 08/08 A2997 RMK A01 T00830080  RH  098%=      5-min Rain = 0
KEN1 240609Z 00003KT 08/08 A2997 RMK A01 T00840082  RH  098%=      5-min Rain = 0
KEN1 240610Z 01004KT 09/08 A2997 RMK A01 T00860083  RH  098%=      5-min Rain = 0
KEN1 240611Z 01004KT 09/09 A2996 RMK A01 T00870085  RH  098%=      5-min Rain = 0
KEN1 240612Z 00003KT 09/09 A2996 RMK A01 T00880086  RH  098%=      5-min Rain = 0
KEN1 240613Z 00002KT 09/09 A2996 RMK A01 T00880086  RH  098%=      5-min Rain = 0
KEN1 240614Z 01002KT 09/09 A2996 RMK A01 T00890086  RH  098%=      5-min Rain = 0
KEN1 240615Z 01003KT 09/09 A2996 RMK A01 T00880085  RH  098%=      5-min Rain = 0
KEN1 240616Z 01003KT 09/08 A2996 RMK A01 T00860083  RH  098%=      5-min Rain = 0
KEN1 240617Z 00003KT 09/08 A2996 RMK A01 T00860083  RH  098%=      5-min Rain = 0
KEN1 240618Z 00002KT 09/08 A2996 RMK A01 T00860083  RH  098%=      5-min Rain = 0
KEN1 240619Z 02002KT 09/08 A2996 RMK A01 T00860083  RH  098%=      5-min Rain = 0
KEN1 240620Z 04003KT 09/08 A2996 RMK A01 T00860084  RH  098%=      5-min Rain = 0
KEN1 240621Z 03004KT 09/08 A2997 RMK A01 T00860083  RH  098%=      5-min Rain = 0
KEN1 240622Z 03005KT 09/08 A2997 RMK A01 T00860083  RH  098%=      5-min Rain = 0
KEN1 240623Z 03005KT 09/08 A2997 RMK A01 T00850082  RH  098%=      5-min Rain = 0
KEN1 240624Z 04005KT 08/08 A2997 RMK A01 T00810077  RH  098%=      5-min Rain = 0
KEN1 240625Z 04005KT 08/07 A2997 RMK A01 T00780074  RH  098%=      5-min Rain = 0
KEN1 240626Z 04005KT 08/07 A2997 RMK A01 T00760072  RH  098%=      5-min Rain = 0
KEN1 240627Z 04005KT 08/07 A2997 RMK A01 T00760073  RH  098%=      5-min Rain = 0
KEN1 240628Z 04004KT 08/07 A2997 RMK A01 T00750072  RH  098%=      5-min Rain = 0
KEN1 240629Z 07003KT 07/07 A2997 RMK A01 T00740070  RH  098%=      5-min Rain = 0
KEN1 240630Z 06003KT 07/07 A2997 RMK A01 T00720068  RH  098%=      5-min Rain = 0
KEN1 240631Z 05004KT 07/07 A2997 RMK A01 T00720069  RH  098%=      5-min Rain = 0
KEN1 240632Z 06004KT 07/07 A2997 RMK A01 T00720069  RH  098%=      5-min Rain = 0
KEN1 240633Z 08003KT 07/07 A2997 RMK A01 T00700067  RH  098%=      5-min Rain = 0
KEN1 240634Z 07003KT 07/07 A2997 RMK A01 T00700067  RH  098%=      5-min Rain = 0
KEN1 240635Z 07003KT 07/07 A2997 RMK A01 T00720069  RH  098%=      5-min Rain = 0
KEN1 240636Z 07003KT 07/07 A2997 RMK A01 T00720069  RH  098%=      5-min Rain = 0
KEN1 240637Z 08003KT 07/07 A2997 RMK A01 T00720069  RH  098%=      5-min Rain = 0
KEN1 240638Z 08003KT 07/07 A2997 RMK A01 T00710069  RH  098%=      5-min Rain = 0
KEN1 240639Z 07003KT 07/07 A2997 RMK A01 T00710069  RH  098%=      5-min Rain = 0
KEN1 240640Z 07003KT 07/07 A2997 RMK A01 T00710069  RH  099%=      5-min Rain = 0
KEN1 240641Z 07003KT 07/07 A2997 RMK A01 T00720070  RH  099%=      5-min Rain = 0
KEN1 240642Z 08004KT 07/07 A2997 RMK A01 T00720069  RH  099%=      5-min Rain = 0
KEN1 240643Z 08006KT 07/07 A2997 RMK A01 T00710069  RH  099%=      5-min Rain = 0
KEN1 240644Z 08008KT 07/07 A2997 RMK A01 T00700067  RH  098%=      5-min Rain = 0
KEN1 240645Z 08009KT 07/07 A2998 RMK A01 T00690067  RH  098%=      5-min Rain = 0
KEN1 240646Z 09009KT 07/07 A2998 RMK A01 T00700067  RH  099%=      5-min Rain = 0
KEN1 240647Z 09008KT 07/07 A2998 RMK A01 T00710070  RH  099%=      5-min Rain = 0
KEN1 240648Z 10008KT 07/07 A2998 RMK A01 T00740073  RH  099%=      5-min Rain = 0
KEN1 240649Z 10007KT 08/07 A2998 RMK A01 T00760074  RH  099%=      5-min Rain = 0
KEN1 240650Z 11008KT 08/08 A2998 RMK A01 T00760075  RH  099%=      5-min Rain = 0
KEN1 240651Z 10008KT 08/08 A2998 RMK A01 T00760075  RH  099%=      5-min Rain = 0
KEN1 240652Z 10008KT 08/08 A2998 RMK A01 T00760075  RH  099%=      5-min Rain = 0
KEN1 240653Z 10009KT 08/07 A2998 RMK A01 T00750074  RH  099%=      5-min Rain = 0
KEN1 240654Z 10009KT 08/07 A2998 RMK A01 T00750073  RH  099%=      5-min Rain = 0
KEN1 240655Z 10008KT 07/07 A2998 RMK A01 T00740073  RH  099%=      5-min Rain = 0
KEN1 240656Z 09007KT 07/07 A2998 RMK A01 T00740073  RH  099%=      5-min Rain = 0
KEN1 240657Z 08007KT 07/07 A2998 RMK A01 T00740072  RH  099%=      5-min Rain = 0
KEN1 240658Z 09007KT 07/07 A2998 RMK A01 T00740072  RH  099%=      5-min Rain = 0
KEN1 240659Z 08007KT 07/07 A2999 RMK A01 T00740073  RH  099%=      5-min Rain = 0
KEN1 240700Z 08007KT 08/07 A2999 RMK A01 T00750074  RH  099%=      5-min Rain = 0
KEN1 240701Z 08007KT 08/08 A2999 RMK A01 T00760075  RH  099%=      5-min Rain = 0
KEN1 240702Z 08006KT 08/08 A2999 RMK A01 T00770076  RH  099%=      5-min Rain = 0
KEN1 240703Z 07006KT 08/08 A2999 RMK A01 T00770076  RH  099%=      5-min Rain = 0
KEN1 240704Z 07006KT 08/08 A2999 RMK A01 T00780077  RH  099%=      5-min Rain = 0
KEN1 240705Z 07006KT 08/08 A2999 RMK A01 T00780077  RH  099%=      5-min Rain = 0
KEN1 240706Z 07006KT 08/08 A2999 RMK A01 T00780077  RH  099%=      5-min Rain = 0
KEN1 240707Z 07005KT 08/08 A2998 RMK A01 T00780077  RH  099%=      5-min Rain = 0
KEN1 240708Z 07005KT 08/08 A2998 RMK A01 T00780077  RH  099%=      5-min Rain = 0
KEN1 240709Z 07004KT 08/08 A2998 RMK A01 T00780077  RH  099%=      5-min Rain = 0
KEN1 240710Z 06004KT 08/08 A2998 RMK A01 T00780077  RH  099%=      5-min Rain = 0
KEN1 240711Z 06003KT 08/08 A2998 RMK A01 T00780076  RH  099%=      5-min Rain = 0
KEN1 240712Z 05003KT 08/08 A2998 RMK A01 T00770076  RH  099%=      5-min Rain = 0
KEN1 240713Z 03003KT 08/08 A2998 RMK A01 T00760075  RH  099%=      5-min Rain = 0
KEN1 240714Z 02003KT 08/08 A2998 RMK A01 T00760075  RH  099%=      5-min Rain = 0
KEN1 240715Z 01003KT 08/08 A2998 RMK A01 T00760075  RH  099%=      5-min Rain = 0
KEN1 240716Z 01004KT 08/07 A2998 RMK A01 T00760074  RH  099%=      5-min Rain = 0
KEN1 240717Z 00004KT 08/08 A2998 RMK A01 T00760075  RH  099%=      5-min Rain = 0
KEN1 240718Z 35005KT 08/07 A2998 RMK A01 T00750074  RH  099%=      5-min Rain = 0
KEN1 240719Z 36004KT 08/07 A2998 RMK A01 T00750074  RH  099%=      5-min Rain = 0
KEN1 240720Z 02003KT 08/07 A2998 RMK A01 T00750074  RH  099%=      5-min Rain = 0
KEN1 240721Z 03003KT 08/07 A2998 RMK A01 T00750074  RH  099%=      5-min Rain = 0
KEN1 240722Z 03003KT 08/07 A2998 RMK A01 T00750074  RH  099%=      5-min Rain = 0
KEN1 240723Z 04003KT 08/07 A2998 RMK A01 T00750074  RH  099%=      5-min Rain = 0
KEN1 240724Z 05002KT 07/07 A2998 RMK A01 T00730072  RH  099%=      5-min Rain = 0
KEN1 240725Z 05003KT 07/07 A2998 RMK A01 T00720071  RH  099%=      5-min Rain = 0
KEN1 240726Z 06003KT 07/07 A2998 RMK A01 T00700069  RH  099%=      5-min Rain = 0
KEN1 240727Z 06003KT 07/07 A2998 RMK A01 T00690068  RH  099%=      5-min Rain = 0
KEN1 240728Z 07003KT 07/07 A2998 RMK A01 T00680066  RH  099%=      5-min Rain = 0
KEN1 240729Z 07004KT 07/07 A2998 RMK A01 T00670066  RH  099%=      5-min Rain = 0
KEN1 240730Z 07003KT 07/07 A2998 RMK A01 T00660065  RH  099%=      5-min Rain = 0
KEN1 240731Z 05003KT 07/07 A2998 RMK A01 T00660065  RH  099%=      5-min Rain = 0
KEN1 240732Z 36002KT 07/07 A2997 RMK A01 T00660065  RH  099%=      5-min Rain = 0
KEN1 240733Z 32003KT 07/07 A2997 RMK A01 T00670066  RH  099%=      5-min Rain = 0
KEN1 240734Z 31003KT 07/07 A2997 RMK A01 T00680067  RH  099%=      5-min Rain = 0
KEN1 240735Z 32002KT 07/07 A2997 RMK A01 T00700069  RH  099%=      5-min Rain = 0
KEN1 240736Z 32003KT 07/07 A2997 RMK A01 T00710070  RH  100%=      5-min Rain = 0
KEN1 240737Z 30003KT 07/07 A2997 RMK A01 T00720071  RH  099%=      5-min Rain = 0
KEN1 240738Z 31002KT 07/07 A2997 RMK A01 T00720071  RH  100%=      5-min Rain = 0
KEN1 240739Z 31003KT 07/07 A2997 RMK A01 T00720071  RH  099%=      5-min Rain = 0
KEN1 240740Z 30004KT 07/07 A2997 RMK A01 T00720072  RH  100%=      5-min Rain = 0
KEN1 240741Z 30004KT 07/07 A2997 RMK A01 T00730072  RH  099%=      5-min Rain = 0
KEN1 240742Z 31004KT 07/07 A2997 RMK A01 T00740073  RH  100%=      5-min Rain = 0
KEN1 240743Z 31004KT 07/07 A2997 RMK A01 T00740073  RH  100%=      5-min Rain = 0
KEN1 240744Z 30005KT 08/07 A2997 RMK A01 T00750074  RH  100%=      5-min Rain = 0
KEN1 240745Z 31004KT 08/08 A2997 RMK A01 T00750075  RH  100%=      5-min Rain = 0
KEN1 240746Z 31003KT 08/08 A2997 RMK A01 T00750075  RH  100%=      5-min Rain = 0
KEN1 240747Z 32003KT 08/08 A2997 RMK A01 T00750075  RH  100%=      5-min Rain = 0
KEN1 240748Z 34003KT 08/08 A2997 RMK A01 T00750075  RH  100%=      5-min Rain = 0
KEN1 240749Z 35003KT 08/08 A2997 RMK A01 T00750075  RH  100%=      5-min Rain = 0
KEN1 240750Z 34002KT 08/08 A2997 RMK A01 T00750075  RH  100%=      5-min Rain = 0
KEN1 240751Z 34003KT 08/08 A2998 RMK A01 T00760075  RH  099%=      5-min Rain = 0
KEN1 240752Z 34004KT 08/07 A2997 RMK A01 T00750074  RH  099%=      5-min Rain = 0
KEN1 240753Z 34004KT 08/08 A2998 RMK A01 T00750075  RH  100%=      5-min Rain = 0
KEN1 240754Z 35004KT 08/08 A2998 RMK A01 T00760075  RH  100%=      5-min Rain = 0
KEN1 240755Z 35004KT 08/08 A2998 RMK A01 T00760075  RH  100%=      5-min Rain = 0
KEN1 240756Z 34005KT 08/08 A2998 RMK A01 T00760076  RH  100%=      5-min Rain = 0
KEN1 240757Z 33005KT 08/08 A2998 RMK A01 T00770076  RH  100%=      5-min Rain = 0
KEN1 240758Z 33005KT 08/08 A2998 RMK A01 T00780077  RH  100%=      5-min Rain = 0
KEN1 240759Z 34005KT 08/08 A2998 RMK A01 T00790078  RH  100%=      5-min Rain = 0
KEN1 240800Z 34005KT 08/08 A2998 RMK A01 T00790079  RH  100%=      5-min Rain = 0
KEN1 240801Z 36007KT 08/08 A2998 RMK A01 T00800080  RH  100%=      5-min Rain = 0
KEN1 240802Z 01007KT 08/08 A2998 RMK A01 T00810081  RH  100%=      5-min Rain = 0
KEN1 240803Z 01008KT 08/08 A2998 RMK A01 T00820081  RH  100%=      5-min Rain = 0
KEN1 240804Z 01008KT 08/08 A2998 RMK A01 T00820082  RH  100%=      5-min Rain = 0
KEN1 240805Z 01009KT 08/08 A2998 RMK A01 T00830082  RH  100%=      5-min Rain = 0
KEN1 240806Z 01008KT 08/08 A2998 RMK A01 T00830083  RH  100%=      5-min Rain = 0
KEN1 240807Z 01008KT 08/08 A2998 RMK A01 T00830083  RH  100%=      5-min Rain = 0
KEN1 240808Z 01008KT 08/08 A2998 RMK A01 T00840084  RH  100%=      5-min Rain = 0
KEN1 240809Z 01007KT 09/08 A2998 RMK A01 T00850084  RH  100%=      5-min Rain = 0
KEN1 240810Z 02006KT 09/08 A2998 RMK A01 T00850084  RH  100%=      5-min Rain = 0
KEN1 240811Z 01006KT 09/08 A2998 RMK A01 T00850084  RH  100%=      5-min Rain = 0
KEN1 240812Z 01006KT 09/09 A2998 RMK A01 T00850085  RH  100%=      5-min Rain = 0
KEN1 240813Z 36006KT 09/09 A2998 RMK A01 T00860085  RH  100%=      5-min Rain = 0
KEN1 240814Z 36007KT 09/09 A2998 RMK A01 T00860086  RH  100%=      5-min Rain = 0
KEN1 240815Z 00005KT 09/09 A2998 RMK A01 T00870086  RH  100%=      5-min Rain = 0
KEN1 240816Z 00005KT 09/09 A2998 RMK A01 T00880087  RH  100%=      5-min Rain = 0
KEN1 240817Z 00006KT 09/09 A2998 RMK A01 T00880088  RH  100%=      5-min Rain = 0
KEN1 240818Z 36007KT 09/09 A2998 RMK A01 T00890088  RH  100%=      5-min Rain = 0
KEN1 240819Z 00007KT 09/09 A2998 RMK A01 T00890088  RH  100%=      5-min Rain = 0
KEN1 240820Z 35006KT 09/09 A2998 RMK A01 T00890088  RH  100%=      5-min Rain = 0
KEN1 240821Z 34007KT 09/09 A2998 RMK A01 T00890089  RH  100%=      5-min Rain = 0
KEN1 240822Z 34006KT 09/09 A2998 RMK A01 T00890089  RH  100%=      5-min Rain = 0
KEN1 240823Z 35005KT 09/09 A2998 RMK A01 T00890089  RH  100%=      5-min Rain = 0
KEN1 240824Z 34005KT 09/09 A2998 RMK A01 T00900089  RH  100%=      5-min Rain = 0
KEN1 240825Z 34007KT 09/09 A2998 RMK A01 T00890089  RH  100%=      5-min Rain = 0
KEN1 240826Z 35006KT 09/09 A2998 RMK A01 T00890088  RH  100%=      5-min Rain = 0
KEN1 240827Z 35005KT 09/09 A2998 RMK A01 T00880088  RH  100%=      5-min Rain = 0
KEN1 240828Z 36005KT 09/09 A2998 RMK A01 T00880088  RH  100%=      5-min Rain = 0
KEN1 240829Z 36005KT 09/09 A2998 RMK A01 T00880088  RH  100%=      5-min Rain = 0
KEN1 240830Z 36006KT 09/09 A2999 RMK A01 T00880088  RH  100%=      5-min Rain = 0
KEN1 240831Z 01007KT 09/09 A2999 RMK A01 T00880088  RH  100%=      5-min Rain = 0
KEN1 240832Z 01007KT 09/09 A2999 RMK A01 T00890088  RH  100%=      5-min Rain = 0
KEN1 240833Z 01007KT 09/09 A2999 RMK A01 T00890088  RH  100%=      5-min Rain = 0
KEN1 240834Z 00007KT 09/09 A2999 RMK A01 T00890089  RH  100%=      5-min Rain = 0
KEN1 240835Z 00007KT 09/09 A2999 RMK A01 T00900089  RH  100%=      5-min Rain = 0
KEN1 240836Z 01007KT 09/09 A2999 RMK A01 T00900089  RH  100%=      5-min Rain = 0
KEN1 240837Z 01007KT 09/09 A2999 RMK A01 T00900089  RH  100%=      5-min Rain = 0
KEN1 240838Z 01007KT 09/09 A2999 RMK A01 T00900089  RH  100%=      5-min Rain = 0
KEN1 240839Z 36007KT 09/09 A2999 RMK A01 T00890089  RH  100%=      5-min Rain = 0
KEN1 240840Z 35007KT 09/09 A2999 RMK A01 T00900089  RH  100%=      5-min Rain = 0
KEN1 240841Z 00006KT 09/09 A2999 RMK A01 T00900090  RH  100%=      5-min Rain = 0
KEN1 240842Z 00006KT 09/09 A2999 RMK A01 T00900090  RH  100%=      5-min Rain = 0
KEN1 240843Z 01007KT 09/09 A2999 RMK A01 T00900090  RH  100%=      5-min Rain = 0
KEN1 240844Z 01007KT 09/09 A2999 RMK A01 T00910090  RH  100%=      5-min Rain = 0
KEN1 240845Z 01008KT 09/09 A2999 RMK A01 T00910091  RH  100%=      5-min Rain = 0
KEN1 240846Z 01008KT 09/09 A2999 RMK A01 T00920091  RH  100%=      5-min Rain = 0
KEN1 240847Z 01008KT 09/09 A2999 RMK A01 T00920092  RH  100%=      5-min Rain = 0
KEN1 240848Z 00008KT 09/09 A2999 RMK A01 T00920091  RH  100%=      5-min Rain = 0
KEN1 240849Z 35008KT 09/09 A2999 RMK A01 T00920091  RH  100%=      5-min Rain = 0
KEN1 240850Z 00008KT 09/09 A2999 RMK A01 T00920092  RH  100%=      5-min Rain = 0
KEN1 240851Z 36006KT 09/09 A2999 RMK A01 T00920091  RH  100%=      5-min Rain = 0
KEN1 240852Z 00006KT 09/09 A2999 RMK A01 T00920091  RH  100%=      5-min Rain = 0
KEN1 240853Z 00005KT 09/09 A2999 RMK A01 T00920092  RH  100%=      5-min Rain = 0
KEN1 240854Z 01004KT 09/09 A2999 RMK A01 T00920092  RH  100%=      5-min Rain = 0
KEN1 240855Z 01005KT 09/09 A2999 RMK A01 T00930092  RH  100%=      5-min Rain = 0
KEN1 240856Z 01005KT 09/09 A2999 RMK A01 T00930092  RH  100%=      5-min Rain = 0
KEN1 240857Z 02005KT 09/09 A2999 RMK A01 T00930092  RH  100%=      5-min Rain = 0
KEN1 240858Z 01006KT 09/09 A2999 RMK A01 T00930092  RH  100%=      5-min Rain = 0
KEN1 240859Z 01005KT 09/09 A2999 RMK A01 T00930092  RH  100%=      5-min Rain = 0
KEN1 240900Z 02005KT 09/09 A2999 RMK A01 T00930092  RH  100%=      5-min Rain = 0
KEN1 240901Z 03005KT 09/09 A2999 RMK A01 T00930093  RH  100%=      5-min Rain = 0
KEN1 240902Z 03005KT 09/09 A2999 RMK A01 T00930093  RH  100%=      5-min Rain = 0
KEN1 240903Z 04005KT 09/09 A2999 RMK A01 T00940093  RH  100%=      5-min Rain = 0
KEN1 240904Z 03005KT 09/09 A2999 RMK A01 T00940093  RH  100%=      5-min Rain = 0
KEN1 240905Z 02004KT 09/09 A2999 RMK A01 T00940093  RH  100%=      5-min Rain = 0
KEN1 240906Z 01005KT 09/09 A2999 RMK A01 T00940094  RH  100%=      5-min Rain = 0
KEN1 240907Z 00005KT 09/09 A2999 RMK A01 T00930093  RH  100%=      5-min Rain = 0
KEN1 240908Z 35005KT 09/09 A2999 RMK A01 T00940093  RH  100%=      5-min Rain = 0
KEN1 240909Z 00005KT 09/09 A2999 RMK A01 T00940093  RH  100%=      5-min Rain = 0
KEN1 240910Z 00004KT 09/09 A2999 RMK A01 T00940094  RH  100%=      5-min Rain = 0
KEN1 240911Z 36005KT 09/09 A2999 RMK A01 T00940094  RH  100%=      5-min Rain = 0
KEN1 240912Z 36004KT 09/09 A2999 RMK A01 T00940094  RH  100%=      5-min Rain = 0
KEN1 240913Z 36004KT 10/09 A2999 RMK A01 T00950094  RH  100%=      5-min Rain = 0
KEN1 240914Z 01004KT 10/10 A2999 RMK A01 T00950095  RH  100%=      5-min Rain = 0
KEN1 240915Z 01003KT 10/10 A2999 RMK A01 T00950095  RH  100%=      5-min Rain = 0
KEN1 240916Z 02003KT 10/10 A2999 RMK A01 T00950095  RH  100%=      5-min Rain = 0
KEN1 240917Z 04005KT 10/10 A2999 RMK A01 T00950095  RH  100%=      5-min Rain = 0
KEN1 240918Z 05006KT 10/10 A2999 RMK A01 T00950095  RH  100%=      5-min Rain = 0
KEN1 240919Z 05006KT 09/09 A30 RMK A01 T00940094  RH  100%=      5-min Rain = 0
KEN1 240920Z 04005KT 09/09 A30 RMK A01 T00940093  RH  100%=      5-min Rain = 0
KEN1 240921Z 04006KT 09/09 A30 RMK A01 T00940093  RH  100%=      5-min Rain = 0
KEN1 240922Z 04006KT 09/09 A30 RMK A01 T00940093  RH  100%=      5-min Rain = 0
KEN1 240923Z 03006KT 09/09 A30 RMK A01 T00930093  RH  100%=      5-min Rain = 0
KEN1 240924Z 04005KT 09/09 A30 RMK A01 T00930093  RH  100%=      5-min Rain = 0
KEN1 240925Z 03004KT 09/09 A30 RMK A01 T00940093  RH  100%=      5-min Rain = 0
KEN1 240926Z 03004KT 09/09 A30 RMK A01 T00940094  RH  100%=      5-min Rain = 0
KEN1 240927Z 03004KT 09/09 A30 RMK A01 T00940094  RH  100%=      5-min Rain = 0
KEN1 240928Z 02003KT 09/09 A2999 RMK A01 T00940094  RH  100%=      5-min Rain = 0
KEN1 240929Z 01003KT 09/09 A2999 RMK A01 T00940094  RH  100%=      5-min Rain = 0
KEN1 240930Z 35003KT 10/09 A2999 RMK A01 T00950094  RH  100%=      5-min Rain = 0
KEN1 240931Z 34003KT 10/09 A2999 RMK A01 T00950094  RH  100%=      5-min Rain = 0
KEN1 240932Z 35004KT 10/09 A30 RMK A01 T00950094  RH  100%=      5-min Rain = 0
KEN1 240933Z 35004KT 10/09 A30 RMK A01 T00950094  RH  100%=      5-min Rain = 0
KEN1 240934Z 01004KT 10/09 A30 RMK A01 T00950094  RH  100%=      5-min Rain = 0
KEN1 240935Z 01004KT 10/10 A2999 RMK A01 T00950095  RH  100%=      5-min Rain = 0
KEN1 240936Z 02003KT 10/09 A2999 RMK A01 T00950094  RH  100%=      5-min Rain = 0
KEN1 240937Z 01002KT 10/09 A2999 RMK A01 T00950094  RH  100%=      5-min Rain = 0
KEN1 240938Z 36002KT 10/09 A30 RMK A01 T00950094  RH  100%=      5-min Rain = 0
KEN1 240939Z 36003KT 10/09 A30 RMK A01 T00950094  RH  100%=      5-min Rain = 0
KEN1 240940Z 01003KT 10/10 A30 RMK A01 T00950095  RH  100%=      5-min Rain = 0
KEN1 240941Z 02003KT 10/10 A30 RMK A01 T00950095  RH  100%=      5-min Rain = 0
KEN1 240942Z 03004KT 10/10 A30 RMK A01 T00950095  RH  100%=      5-min Rain = 0
KEN1 240943Z 04004KT 10/10 A30 RMK A01 T00950095  RH  100%=      5-min Rain = 0
KEN1 240944Z 05004KT 10/10 A30 RMK A01 T00950095  RH  100%=      5-min Rain = 0
KEN1 240945Z 06003KT 10/10 A30 RMK A01 T00950095  RH  100%=      5-min Rain = 0
KEN1 240946Z 05003KT 10/10 A30 RMK A01 T00950095  RH  100%=      5-min Rain = 0
KEN1 240947Z 06003KT 10/10 A30 RMK A01 T00950095  RH  100%=      5-min Rain = 0
KEN1 240948Z 07002KT 10/10 A30 RMK A01 T00950095  RH  100%=      5-min Rain = 0
KEN1 240949Z 07002KT 09/09 A3001 RMK A01 T00940094  RH  100%=      5-min Rain = 0
KEN1 240950Z 08002KT 10/09 A3001 RMK A01 T00950094  RH  100%=      5-min Rain = 0
KEN1 240951Z 07003KT 10/09 A3001 RMK A01 T00950094  RH  100%=      5-min Rain = 0
KEN1 240952Z 07003KT 10/09 A30 RMK A01 T00950094  RH  100%=      5-min Rain = 0
KEN1 240953Z 07004KT 10/09 A30 RMK A01 T00950094  RH  100%=      5-min Rain = 0
KEN1 240954Z 05003KT 10/09 A30 RMK A01 T00950094  RH  100%=      5-min Rain = 0
KEN1 240955Z 05002KT 10/09 A30 RMK A01 T00950094  RH  100%=      5-min Rain = 0
KEN1 240956Z 07001KT 10/09 A30 RMK A01 T00950094  RH  100%=      5-min Rain = 0
KEN1 240957Z 09002KT 10/09 A30 RMK A01 T00950094  RH  100%=      5-min Rain = 0
KEN1 240958Z 08002KT 09/09 A30 RMK A01 T00940094  RH  100%=      5-min Rain = 0
KEN1 240959Z 07004KT 09/09 A30 RMK A01 T00940094  RH  100%=      5-min Rain = 0
KEN1 241000Z 07003KT 09/09 A30 RMK A01 T00940093  RH  100%=      5-min Rain = 0
KEN1 241001Z 07004KT 09/09 A30 RMK A01 T00940093  RH  100%=      5-min Rain = 0
KEN1 241002Z 09003KT 09/09 A30 RMK A01 T00940094  RH  100%=      5-min Rain = 0
KEN1 241003Z 10003KT 09/09 A30 RMK A01 T00940094  RH  100%=      5-min Rain = 0
KEN1 241004Z 09003KT 09/09 A30 RMK A01 T00930093  RH  100%=      5-min Rain = 0
KEN1 241005Z 08002KT 09/09 A30 RMK A01 T00930093  RH  100%=      5-min Rain = 0
KEN1 241006Z 08003KT 09/09 A30 RMK A01 T00930092  RH  100%=      5-min Rain = 0
KEN1 241007Z 07003KT 09/09 A30 RMK A01 T00920091  RH  100%=      5-min Rain = 0
KEN1 241008Z 08003KT 09/09 A30 RMK A01 T00920091  RH  100%=      5-min Rain = 0
KEN1 241009Z 08003KT 09/09 A30 RMK A01 T00910091  RH  100%=      5-min Rain = 0
KEN1 241010Z 09003KT 09/09 A30 RMK A01 T00920091  RH  100%=      5-min Rain = 0
KEN1 241011Z 10002KT 09/09 A30 RMK A01 T00910091  RH  100%=      5-min Rain = 0
KEN1 241012Z 10003KT 09/09 A30 RMK A01 T00910091  RH  100%=      5-min Rain = 0
KEN1 241013Z 10002KT 09/09 A30 RMK A01 T00910091  RH  100%=      5-min Rain = 0
KEN1 241014Z 10002KT 09/09 A30 RMK A01 T00910091  RH  100%=      5-min Rain = 0
KEN1 241015Z 11001KT 09/09 A30 RMK A01 T00900090  RH  100%=      5-min Rain = 0
KEN1 241016Z 18001KT 09/09 A30 RMK A01 T00900090  RH  100%=      5-min Rain = 0
KEN1 241017Z 20001KT 09/09 A30 RMK A01 T00900090  RH  100%=      5-min Rain = 0
KEN1 241018Z 25000KT 09/09 A30 RMK A01 T00900089  RH  100%=      5-min Rain = 0
KEN1 241019Z 00000KT 09/09 A30 RMK A01 T00900089  RH  100%=      5-min Rain = 0
KEN1 241020Z 04000KT 09/09 A2999 RMK A01 T00890089  RH  100%=      5-min Rain = 0
KEN1 241021Z 08000KT 09/09 A2999 RMK A01 T00900089  RH  100%=      5-min Rain = 0
KEN1 241022Z 00000KT 09/09 A2999 RMK A01 T00900090  RH  100%=      5-min Rain = 0
KEN1 241023Z 28000KT 09/09 A2999 RMK A01 T00900090  RH  100%=      5-min Rain = 0
KEN1 241024Z 25002KT 09/09 A30 RMK A01 T00900090  RH  100%=      5-min Rain = 0
KEN1 241025Z 26003KT 09/09 A30 RMK A01 T00900090  RH  100%=      5-min Rain = 0
KEN1 241026Z 23003KT 09/09 A30 RMK A01 T00900090  RH  100%=      5-min Rain = 0
KEN1 241027Z 23001KT 09/09 A30 RMK A01 T00900090  RH  100%=      5-min Rain = 0
KEN1 241028Z 25001KT 09/09 A30 RMK A01 T00900090  RH  100%=      5-min Rain = 0
KEN1 241029Z 25000KT 09/09 A30 RMK A01 T00890089  RH  100%=      5-min Rain = 0
KEN1 241030Z 25000KT 09/09 A30 RMK A01 T00900089  RH  100%=      5-min Rain = 0
KEN1 241031Z 22001KT 09/09 A30 RMK A01 T00890089  RH  100%=      5-min Rain = 0
KEN1 241032Z 23002KT 09/09 A30 RMK A01 T00900090  RH  100%=      5-min Rain = 0
KEN1 241033Z 22003KT 09/09 A30 RMK A01 T00900090  RH  100%=      5-min Rain = 0
KEN1 241034Z 22002KT 09/09 A30 RMK A01 T00900090  RH  100%=      5-min Rain = 0
KEN1 241035Z 18002KT 09/09 A30 RMK A01 T00910090  RH  100%=      5-min Rain = 0
KEN1 241036Z 16004KT 09/09 A30 RMK A01 T00900090  RH  100%=      5-min Rain = 0
KEN1 241037Z 14004KT 09/09 A30 RMK A01 T00910091  RH  100%=      5-min Rain = 0
KEN1 241038Z 14005KT 09/09 A30 RMK A01 T00920092  RH  100%=      5-min Rain = 0
KEN1 241039Z 15003KT 09/09 A30 RMK A01 T00920092  RH  100%=      5-min Rain = 0
KEN1 241040Z 20003KT 09/09 A3001 RMK A01 T00910091  RH  100%=      5-min Rain = 0
KEN1 241041Z 18003KT 09/09 A3001 RMK A01 T00910091  RH  100%=      5-min Rain = 0
KEN1 241042Z 21002KT 09/09 A3001 RMK A01 T00910091  RH  100%=      5-min Rain = 0
KEN1 241043Z 21002KT 09/09 A3001 RMK A01 T00910091  RH  100%=      5-min Rain = 0
KEN1 241044Z 20001KT 09/09 A3001 RMK A01 T00910090  RH  100%=      5-min Rain = 0
KEN1 241045Z 18002KT 09/09 A3001 RMK A01 T00900090  RH  100%=      5-min Rain = 0
KEN1 241046Z 20002KT 09/09 A3001 RMK A01 T00900090  RH  100%=      5-min Rain = 0
KEN1 241047Z 22003KT 09/09 A3001 RMK A01 T00900090  RH  100%=      5-min Rain = 0
KEN1 241048Z 24002KT 09/09 A3001 RMK A01 T00900090  RH  100%=      5-min Rain = 0
KEN1 241049Z 26002KT 09/09 A3001 RMK A01 T00900089  RH  100%=      5-min Rain = 0
KEN1 241050Z 28001KT 09/09 A3001 RMK A01 T00890089  RH  100%=      5-min Rain = 0
KEN1 241051Z 28002KT 09/09 A3001 RMK A01 T00890089  RH  100%=      5-min Rain = 0
KEN1 241052Z 27001KT 09/09 A3001 RMK A01 T00890089  RH  100%=      5-min Rain = 0
KEN1 241053Z 27001KT 09/09 A3001 RMK A01 T00890089  RH  100%=      5-min Rain = 0
KEN1 241054Z 24000KT 09/09 A3001 RMK A01 T00900090  RH  100%=      5-min Rain = 0
KEN1 241055Z 24003KT 09/09 A3001 RMK A01 T00900090  RH  100%=      5-min Rain = 0
KEN1 241056Z 24002KT 09/09 A3001 RMK A01 T00900090  RH  100%=      5-min Rain = 0
KEN1 241057Z 24002KT 09/09 A3001 RMK A01 T00900090  RH  100%=      5-min Rain = 0
KEN1 241058Z 23002KT 09/09 A3001 RMK A01 T00900090  RH  100%=      5-min Rain = 0
KEN1 241059Z 25002KT 09/09 A3001 RMK A01 T00890089  RH  100%=      5-min Rain = 0
KEN1 241100Z 29003KT 09/09 A3001 RMK A01 T00890089  RH  100%=      5-min Rain = 0
KEN1 241101Z 30003KT 09/09 A3001 RMK A01 T00900090  RH  100%=      5-min Rain = 0
KEN1 241102Z 29003KT 09/09 A3001 RMK A01 T00900090  RH  100%=      5-min Rain = 0
KEN1 241103Z 27004KT 09/09 A3001 RMK A01 T00900090  RH  100%=      5-min Rain = 0
KEN1 241104Z 28003KT 09/09 A3001 RMK A01 T00900090  RH  100%=      5-min Rain = 0
KEN1 241105Z 28002KT 09/09 A3001 RMK A01 T00900090  RH  100%=      5-min Rain = 0
KEN1 241106Z 27000KT 09/09 A3001 RMK A01 T00900090  RH  100%=      5-min Rain = 0
KEN1 241107Z 09000KT 09/09 A3001 RMK A01 T00910090  RH  100%=      5-min Rain = 0
KEN1 241108Z 07001KT 09/09 A3001 RMK A01 T00890089  RH  100%=      5-min Rain = 0
KEN1 241109Z 07000KT 09/09 A3001 RMK A01 T00890089  RH  100%=      5-min Rain = 0
KEN1 241110Z 28000KT 09/09 A3001 RMK A01 T00890089  RH  100%=      5-min Rain = 0
KEN1 241111Z 29002KT 09/09 A3001 RMK A01 T00890089  RH  100%=      5-min Rain = 0
KEN1 241112Z 29001KT 09/09 A3001 RMK A01 T00890089  RH  100%=      5-min Rain = 0
KEN1 241113Z 33001KT 09/09 A3001 RMK A01 T00890089  RH  100%=      5-min Rain = 0
KEN1 241114Z 34003KT 09/09 A3001 RMK A01 T00890089  RH  100%=      5-min Rain = 0
KEN1 241115Z 01003KT 09/09 A3001 RMK A01 T00900090  RH  100%=      5-min Rain = 0
KEN1 241116Z 36002KT 09/09 A3001 RMK A01 T00910090  RH  100%=      5-min Rain = 0
KEN1 241117Z 00002KT 09/09 A3001 RMK A01 T00900090  RH  100%=      5-min Rain = 0
KEN1 241118Z 35002KT 09/09 A3001 RMK A01 T00900090  RH  100%=      5-min Rain = 0
KEN1 241119Z 00002KT 09/09 A3002 RMK A01 T00900090  RH  100%=      5-min Rain = 0
KEN1 241120Z 35002KT 09/09 A3002 RMK A01 T00910091  RH  100%=      5-min Rain = 0
KEN1 241121Z 31001KT 09/09 A3002 RMK A01 T00910091  RH  100%=      5-min Rain = 0
KEN1 241122Z 32001KT 09/09 A3002 RMK A01 T00920092  RH  100%=      5-min Rain = 0
KEN1 241123Z 31001KT 09/09 A3002 RMK A01 T00920092  RH  100%=      5-min Rain = 0
KEN1 241124Z 31002KT 09/09 A3002 RMK A01 T00920092  RH  100%=      5-min Rain = 0
KEN1 241125Z 33002KT 09/09 A3002 RMK A01 T00920092  RH  100%=      5-min Rain = 0
KEN1 241126Z 35003KT 09/09 A3002 RMK A01 T00920092  RH  100%=      5-min Rain = 0
KEN1 241127Z 00003KT 09/09 A3002 RMK A01 T00910091  RH  100%=      5-min Rain = 0
KEN1 241128Z 01003KT 09/09 A3002 RMK A01 T00900090  RH  100%=      5-min Rain = 0
KEN1 241129Z 00004KT 09/09 A3002 RMK A01 T00900090  RH  100%=      5-min Rain = 0
KEN1 241130Z 36005KT 09/09 A3002 RMK A01 T00900090  RH  100%=      5-min Rain = 0
KEN1 241131Z 35004KT 09/09 A3002 RMK A01 T00900090  RH  100%=      5-min Rain = 0
KEN1 241132Z 32004KT 09/09 A3002 RMK A01 T00900090  RH  100%=      5-min Rain = 0
KEN1 241133Z 30004KT 09/09 A3002 RMK A01 T00900090  RH  100%=      5-min Rain = 0
KEN1 241134Z 29004KT 09/09 A3002 RMK A01 T00910091  RH  100%=      5-min Rain = 0
KEN1 241135Z 29003KT 09/09 A3002 RMK A01 T00900090  RH  100%=      5-min Rain = 0
KEN1 241136Z 30002KT 09/09 A3002 RMK A01 T00900090  RH  100%=      5-min Rain = 0
KEN1 241137Z 32004KT 09/09 A3002 RMK A01 T00910091  RH  100%=      5-min Rain = 0
KEN1 241138Z 34005KT 09/09 A3002 RMK A01 T00910091  RH  100%=      5-min Rain = 0
KEN1 241139Z 34005KT 09/09 A3002 RMK A01 T00910091  RH  100%=      5-min Rain = 0
KEN1 241140Z 36006KT 09/09 A3002 RMK A01 T00910091  RH  100%=      5-min Rain = 0
KEN1 241141Z 01005KT 09/09 A3002 RMK A01 T00900090  RH  100%=      5-min Rain = 0
KEN1 241142Z 01005KT 09/09 A3002 RMK A01 T00910091  RH  100%=      5-min Rain = 0
KEN1 241143Z 34005KT 09/09 A3002 RMK A01 T00900090  RH  100%=      5-min Rain = 0
KEN1 241144Z 32005KT 09/09 A3002 RMK A01 T00900090  RH  100%=      5-min Rain = 0
KEN1 241145Z 32005KT 09/09 A3002 RMK A01 T00900090  RH  100%=      5-min Rain = 0
KEN1 241146Z 33004KT 09/09 A3002 RMK A01 T00880088  RH  100%=      5-min Rain = 0
KEN1 241147Z 34004KT 09/09 A3002 RMK A01 T00880088  RH  100%=      5-min Rain = 0
KEN1 241148Z 33005KT 09/09 A3002 RMK A01 T00880088  RH  100%=      5-min Rain = 0
KEN1 241149Z 33003KT 09/09 A3002 RMK A01 T00880088  RH  100%=      5-min Rain = 0
KEN1 241150Z 36002KT 09/09 A3002 RMK A01 T00880088  RH  100%=      5-min Rain = 0
KEN1 241151Z 02003KT 09/09 A3002 RMK A01 T00880088  RH  100%=      5-min Rain = 0
KEN1 241152Z 03003KT 09/09 A3002 RMK A01 T00880088  RH  100%=      5-min Rain = 0
KEN1 241153Z 03002KT 09/09 A3002 RMK A01 T00880088  RH  100%=      5-min Rain = 0
KEN1 241154Z 34002KT 09/09 A3002 RMK A01 T00880088  RH  100%=      5-min Rain = 0
KEN1 241155Z 32001KT 09/09 A3002 RMK A01 T00880088  RH  100%=      5-min Rain = 0
KEN1 241156Z 00002KT 09/09 A3003 RMK A01 T00880088  RH  100%=      5-min Rain = 0
KEN1 241157Z 01003KT 09/09 A3003 RMK A01 T00880088  RH  100%=      5-min Rain = 0
KEN1 241158Z 02004KT 09/09 A3003 RMK A01 T00880088  RH  100%=      5-min Rain = 0
KEN1 241159Z 01004KT 09/09 A3003 RMK A01 T00880088  RH  100%=      5-min Rain = 0
KEN1 241200Z 33004KT 09/09 A3003 RMK A01 T00880088  RH  100%=      5-min Rain = 0
KEN1 241201Z 32003KT 09/09 A3003 RMK A01 T00880088  RH  100%=      5-min Rain = 0
KEN1 241202Z 30004KT 09/09 A3003 RMK A01 T00880088  RH  100%=      5-min Rain = 0
KEN1 241203Z 29004KT 09/09 A3003 RMK A01 T00880088  RH  100%=      5-min Rain = 0
KEN1 241204Z 29002KT 09/09 A3003 RMK A01 T00870087  RH  100%=      5-min Rain = 0
KEN1 241205Z 32002KT 09/09 A3003 RMK A01 T00870087  RH  100%=      5-min Rain = 0
KEN1 241206Z 32003KT 09/09 A3003 RMK A01 T00870087  RH  100%=      5-min Rain = 0
KEN1 241207Z 32003KT 09/09 A3003 RMK A01 T00870087  RH  100%=      5-min Rain = 0
KEN1 241208Z 30003KT 09/09 A3003 RMK A01 T00870087  RH  100%=      5-min Rain = 0
KEN1 241209Z 27003KT 09/09 A3003 RMK A01 T00870087  RH  100%=      5-min Rain = 0
KEN1 241210Z 29004KT 09/09 A3003 RMK A01 T00880088  RH  100%=      5-min Rain = 0
KEN1 241211Z 31003KT 09/09 A3003 RMK A01 T00880088  RH  100%=      5-min Rain = 0
KEN1 241212Z 31003KT 09/09 A3003 RMK A01 T00890089  RH  100%=      5-min Rain = 0
KEN1 241213Z 32003KT 09/09 A3003 RMK A01 T00890089  RH  100%=      5-min Rain = 0
KEN1 241214Z 31003KT 09/09 A3003 RMK A01 T00900090  RH  100%=      5-min Rain = 0
KEN1 241215Z 34004KT 09/09 A3003 RMK A01 T00900090  RH  100%=      5-min Rain = 0
KEN1 241216Z 34004KT 09/09 A3003 RMK A01 T00900090  RH  100%=      5-min Rain = 0
KEN1 241217Z 34003KT 09/09 A3003 RMK A01 T00900090  RH  100%=      5-min Rain = 0
KEN1 241218Z 33004KT 09/09 A3003 RMK A01 T00890089  RH  100%=      5-min Rain = 0
KEN1 241219Z 32003KT 09/09 A3003 RMK A01 T00890089  RH  100%=      5-min Rain = 0
KEN1 241220Z 31003KT 09/09 A3003 RMK A01 T00890089  RH  100%=      5-min Rain = 0
KEN1 241221Z 31003KT 09/09 A3004 RMK A01 T00890089  RH  100%=      5-min Rain = 0
KEN1 241222Z 34002KT 09/09 A3004 RMK A01 T00900090  RH  100%=      5-min Rain = 0
KEN1 241223Z 34002KT 09/09 A3004 RMK A01 T00900090  RH  100%=      5-min Rain = 0
KEN1 241224Z 33002KT 09/09 A3004 RMK A01 T00890089  RH  100%=      5-min Rain = 0
KEN1 241225Z 36002KT 09/09 A3004 RMK A01 T00890089  RH  100%=      5-min Rain = 0
KEN1 241226Z 02003KT 09/09 A3004 RMK A01 T00890089  RH  100%=      5-min Rain = 0
KEN1 241227Z 02003KT 09/09 A3004 RMK A01 T00890089  RH  100%=      5-min Rain = 0
KEN1 241228Z 03003KT 09/09 A3004 RMK A01 T00890089  RH  100%=      5-min Rain = 0
KEN1 241229Z 03002KT 09/09 A3005 RMK A01 T00890089  RH  100%=      5-min Rain = 0
KEN1 241230Z 05002KT 09/09 A3005 RMK A01 T00890089  RH  100%=      5-min Rain = 0
KEN1 241231Z 06002KT 09/09 A3005 RMK A01 T00890089  RH  100%=      5-min Rain = 0
KEN1 241232Z 05004KT 09/09 A3005 RMK A01 T00890089  RH  100%=      5-min Rain = 0
KEN1 241233Z 04004KT 09/09 A3005 RMK A01 T00890090  RH  100%=      5-min Rain = 0
KEN1 241234Z 04004KT 09/09 A3005 RMK A01 T00900090  RH  100%=      5-min Rain = 0
KEN1 241235Z 04004KT 09/09 A3005 RMK A01 T00900090  RH  100%=      5-min Rain = 0
KEN1 241236Z 03003KT 09/09 A3005 RMK A01 T00900090  RH  100%=      5-min Rain = 0
KEN1 241237Z 04004KT 09/09 A3005 RMK A01 T00910091  RH  100%=      5-min Rain = 0
KEN1 241238Z 03004KT 09/09 A3005 RMK A01 T00910091  RH  100%=      5-min Rain = 0
KEN1 241239Z 04003KT 09/09 A3005 RMK A01 T00910091  RH  100%=      5-min Rain = 0
KEN1 241240Z 05003KT 09/09 A3005 RMK A01 T00910091  RH  100%=      5-min Rain = 0
KEN1 241241Z 05002KT 09/09 A3005 RMK A01 T00910091  RH  100%=      5-min Rain = 0
KEN1 241242Z 05004KT 09/09 A3005 RMK A01 T00910091  RH  100%=      5-min Rain = 0
KEN1 241243Z 02002KT 09/09 A3005 RMK A01 T00920092  RH  100%=      5-min Rain = 0
KEN1 241244Z 00003KT 09/09 A3005 RMK A01 T00920092  RH  100%=      5-min Rain = 0
KEN1 241245Z 35002KT 09/09 A3005 RMK A01 T00910091  RH  100%=      5-min Rain = 0
KEN1 241246Z 01002KT 09/09 A3005 RMK A01 T00910091  RH  100%=      5-min Rain = 0
KEN1 241247Z 04002KT 09/09 A3005 RMK A01 T00910091  RH  100%=      5-min Rain = 0
KEN1 241248Z 06003KT 09/09 A3005 RMK A01 T00910091  RH  100%=      5-min Rain = 0
KEN1 241249Z 06004KT 09/09 A3006 RMK A01 T00910091  RH  100%=      5-min Rain = 0
KEN1 241250Z 07004KT 09/09 A3006 RMK A01 T00920092  RH  100%=      5-min Rain = 0
KEN1 241251Z 07004KT 09/09 A3006 RMK A01 T00930093  RH  100%=      5-min Rain = 0
KEN1 241252Z 06003KT 09/09 A3005 RMK A01 T00940094  RH  100%=      5-min Rain = 0
KEN1 241253Z 04002KT 09/09 A3005 RMK A01 T00940094  RH  100%=      5-min Rain = 0
KEN1 241254Z 01001KT 09/09 A3005 RMK A01 T00940094  RH  100%=      5-min Rain = 0
KEN1 241255Z 02001KT 09/09 A3005 RMK A01 T00940094  RH  100%=      5-min Rain = 0
KEN1 241256Z 09002KT 10/10 A3005 RMK A01 T00950095  RH  100%=      5-min Rain = 0
KEN1 241257Z 09002KT 10/10 A3005 RMK A01 T00960096  RH  100%=      5-min Rain = 0
KEN1 241258Z 07004KT 10/10 A3005 RMK A01 T00960096  RH  100%=      5-min Rain = 0
KEN1 241259Z 06005KT 10/10 A3005 RMK A01 T00960096  RH  100%=      5-min Rain = 0
KEN1 241300Z 07005KT 10/10 A3005 RMK A01 T00970097  RH  100%=      5-min Rain = 0
KEN1 241301Z 05003KT 10/10 A3005 RMK A01 T00980098  RH  100%=      5-min Rain = 0
KEN1 241302Z 08002KT 10/10 A3005 RMK A01 T00980098  RH  100%=      5-min Rain = 0
KEN1 241303Z 07002KT 10/10 A3005 RMK A01 T00970097  RH  100%=      5-min Rain = 0
KEN1 241304Z 06003KT 10/10 A3005 RMK A01 T00970097  RH  100%=      5-min Rain = 0
KEN1 241305Z 07002KT 10/10 A3005 RMK A01 T00970097  RH  100%=      5-min Rain = 0
KEN1 241306Z 06001KT 10/10 A3005 RMK A01 T00970097  RH  100%=      5-min Rain = 0
KEN1 241307Z 04002KT 10/10 A3005 RMK A01 T00970097  RH  100%=      5-min Rain = 0
KEN1 241308Z 07003KT 10/10 A3005 RMK A01 T00980098  RH  100%=      5-min Rain = 0
KEN1 241309Z 06004KT 10/10 A3006 RMK A01 T00990099  RH  100%=      5-min Rain = 0
KEN1 241310Z 04005KT 10/10 A3006 RMK A01 T00990099  RH  100%=      5-min Rain = 0
KEN1 241311Z 05004KT 10/10 A3006 RMK A01 T00990099  RH  100%=      5-min Rain = 0
KEN1 241312Z 05003KT 10/10 A3006 RMK A01 T00980098  RH  100%=      5-min Rain = 0
KEN1 241313Z 02002KT 10/10 A3005 RMK A01 T00980098  RH  100%=      5-min Rain = 0
KEN1 241314Z 00003KT 10/10 A3005 RMK A01 T00990099  RH  100%=      5-min Rain = 0
KEN1 241315Z 01004KT 10/10 A3005 RMK A01 T00990099  RH  100%=      5-min Rain = 0
KEN1 241316Z 03003KT 10/10 A3005 RMK A01 T00990099  RH  100%=      5-min Rain = 0
KEN1 241317Z 01003KT 10/10 A3005 RMK A01 T00990099  RH  100%=      5-min Rain = 0
KEN1 241318Z 02003KT 10/10 A3005 RMK A01 T00990099  RH  100%=      5-min Rain = 0
KEN1 241319Z 05004KT 10/10 A3005 RMK A01 T00990099  RH  100%=      5-min Rain = 0
KEN1 241320Z 06003KT 10/10 A3005 RMK A01 T00990099  RH  100%=      5-min Rain = 0
KEN1 241321Z 08003KT 10/10 A3005 RMK A01 T00990099  RH  100%=      5-min Rain = 0
KEN1 241322Z 06003KT 10/10 A3005 RMK A01 T00990099  RH  100%=      5-min Rain = 0
KEN1 241323Z 07004KT 10/10 A3006 RMK A01 T01000100  RH  100%=      5-min Rain = 0
KEN1 241324Z 07004KT 10/10 A3006 RMK A01 T01010101  RH  100%=      5-min Rain = 0
KEN1 241325Z 06003KT 10/10 A3006 RMK A01 T01010101  RH  100%=      5-min Rain = 0
KEN1 241326Z 04003KT 10/10 A3006 RMK A01 T01020102  RH  100%=      5-min Rain = 0
KEN1 241327Z 04003KT 10/10 A3006 RMK A01 T01020102  RH  100%=      5-min Rain = 0
KEN1 241328Z 04003KT 10/10 A3006 RMK A01 T01010102  RH  100%=      5-min Rain = 0
KEN1 241329Z 02004KT 10/10 A3006 RMK A01 T01020102  RH  100%=      5-min Rain = 0
KEN1 241330Z 03004KT 10/10 A3006 RMK A01 T01020102  RH  100%=      5-min Rain = 0
KEN1 241331Z 03003KT 10/10 A3006 RMK A01 T01010101  RH  100%=      5-min Rain = 0
KEN1 241332Z 03004KT 10/10 A3006 RMK A01 T01010101  RH  100%=      5-min Rain = 0
KEN1 241333Z 02003KT 10/10 A3006 RMK A01 T01010101  RH  100%=      5-min Rain = 0
KEN1 241334Z 04003KT 10/10 A3006 RMK A01 T01020102  RH  100%=      5-min Rain = 0
KEN1 241335Z 04003KT 10/10 A3006 RMK A01 T01030103  RH  100%=      5-min Rain = 0
KEN1 241336Z 04002KT 10/10 A3006 RMK A01 T01020102  RH  100%=      5-min Rain = 0
KEN1 241337Z 04001KT 10/10 A3006 RMK A01 T01010101  RH  100%=      5-min Rain = 0
KEN1 241338Z 02001KT 10/10 A3006 RMK A01 T01010101  RH  100%=      5-min Rain = 0
KEN1 241339Z 02002KT 10/10 A3006 RMK A01 T01010101  RH  100%=      5-min Rain = 0
KEN1 241340Z 04002KT 10/10 A3006 RMK A01 T01020102  RH  100%=      5-min Rain = 0
KEN1 241341Z 05002KT 10/10 A3006 RMK A01 T01020102  RH  100%=      5-min Rain = 0
KEN1 241342Z 04003KT 10/10 A3006 RMK A01 T01020102  RH  100%=      5-min Rain = 0
KEN1 241343Z 05002KT 10/10 A3006 RMK A01 T01030103  RH  100%=      5-min Rain = 0
KEN1 241344Z 04002KT 10/10 A3006 RMK A01 T01020102  RH  100%=      5-min Rain = 0
KEN1 241345Z 04001KT 10/10 A3006 RMK A01 T01030103  RH  100%=      5-min Rain = 0
KEN1 241346Z 05001KT 10/10 A3006 RMK A01 T01030103  RH  100%=      5-min Rain = 0
KEN1 241347Z 05002KT 10/10 A3006 RMK A01 T01030103  RH  100%=      5-min Rain = 0
KEN1 241348Z 04001KT 10/10 A3006 RMK A01 T01030103  RH  100%=      5-min Rain = 0
KEN1 241349Z 04001KT 10/10 A3006 RMK A01 T01030102  RH  100%=      5-min Rain = 0
KEN1 241350Z 04003KT 10/10 A3006 RMK A01 T01030102  RH  100%=      5-min Rain = 0
KEN1 241351Z 05004KT 10/10 A3006 RMK A01 T01020102  RH  100%=      5-min Rain = 0
KEN1 241352Z 05004KT 10/10 A3006 RMK A01 T01030103  RH  100%=      5-min Rain = 0
KEN1 241353Z 05004KT 10/10 A3006 RMK A01 T01030103  RH  100%=      5-min Rain = 0
KEN1 241354Z 05002KT 10/10 A3006 RMK A01 T01030103  RH  100%=      5-min Rain = 0
KEN1 241355Z 06002KT 10/10 A3006 RMK A01 T01030103  RH  100%=      5-min Rain = 0
KEN1 241356Z 06001KT 10/10 A3006 RMK A01 T01030103  RH  100%=      5-min Rain = 0
KEN1 241357Z 05001KT 10/10 A3006 RMK A01 T01020102  RH  100%=      5-min Rain = 0
KEN1 241358Z 35000KT 10/10 A3006 RMK A01 T01030103  RH  100%=      5-min Rain = 0
KEN1 241359Z 30001KT 10/10 A3006 RMK A01 T01030103  RH  100%=      5-min Rain = 0
KEN1 241400Z 32002KT 10/10 A3006 RMK A01 T01040104  RH  100%=      5-min Rain = 0
KEN1 241401Z 27002KT 10/10 A3006 RMK A01 T01040104  RH  100%=      5-min Rain = 0
KEN1 241402Z 26002KT 10/10 A3006 RMK A01 T01040104  RH  100%=      5-min Rain = 0
KEN1 241403Z 27002KT 10/10 A3006 RMK A01 T01040104  RH  100%=      5-min Rain = 0
KEN1 241404Z 27001KT 11/10 A3006 RMK A01 T01050104  RH  100%=      5-min Rain = 0
KEN1 241405Z 30001KT 11/10 A3006 RMK A01 T01050104  RH  100%=      5-min Rain = 0
KEN1 241406Z 32002KT 10/10 A3006 RMK A01 T01040104  RH  100%=      5-min Rain = 0
KEN1 241407Z 33002KT 10/10 A3006 RMK A01 T01040104  RH  100%=      5-min Rain = 0
KEN1 241408Z 32003KT 10/10 A3006 RMK A01 T01040103  RH  100%=      5-min Rain = 0
KEN1 241409Z 32004KT 10/10 A3006 RMK A01 T01040104  RH  100%=      5-min Rain = 0
KEN1 241410Z 33003KT 10/10 A3006 RMK A01 T01030103  RH  100%=      5-min Rain = 0
KEN1 241411Z 30002KT 10/10 A3006 RMK A01 T01020102  RH  100%=      5-min Rain = 0
KEN1 241412Z 29004KT 10/10 A3006 RMK A01 T01020102  RH  100%=      5-min Rain = 0
KEN1 241413Z 30004KT 10/10 A3006 RMK A01 T01040104  RH  100%=      5-min Rain = 0
KEN1 241414Z 29005KT 10/10 A3006 RMK A01 T01040104  RH  100%=      5-min Rain = 0
KEN1 241415Z 31004KT 11/11 A3006 RMK A01 T01050105  RH  100%=      5-min Rain = 0
KEN1 241416Z 30006KT 11/11 A3006 RMK A01 T01060106  RH  100%=      5-min Rain = 0
KEN1 241417Z 29005KT 10/10 A3006 RMK A01 T01040104  RH  100%=      5-min Rain = 0
KEN1 241418Z 30004KT 10/10 A3006 RMK A01 T01030103  RH  100%=      5-min Rain = 0
KEN1 241419Z 28003KT 10/10 A3006 RMK A01 T01040103  RH  100%=      5-min Rain = 0
KEN1 241420Z 28003KT 10/10 A3006 RMK A01 T01040103  RH  100%=      5-min Rain = 0
KEN1 241421Z 27003KT 10/10 A3006 RMK A01 T01040103  RH  100%=      5-min Rain = 0
KEN1 241422Z 26003KT 10/10 A3006 RMK A01 T01030102  RH  100%=      5-min Rain = 0
KEN1 241423Z 26003KT 10/10 A3006 RMK A01 T01020102  RH  100%=      5-min Rain = 0
KEN1 241424Z 28005KT 10/10 A3006 RMK A01 T01030103  RH  100%=      5-min Rain = 0
KEN1 241425Z 29005KT 11/10 A3006 RMK A01 T01050104  RH  100%=      5-min Rain = 0
KEN1 241426Z 30003KT 10/10 A3006 RMK A01 T01040104  RH  100%=      5-min Rain = 0
KEN1 241427Z 30003KT 10/10 A3006 RMK A01 T01040104  RH  100%=      5-min Rain = 0
KEN1 241428Z 29005KT 10/10 A3006 RMK A01 T01030103  RH  100%=      5-min Rain = 0
KEN1 241429Z 31006KT 10/10 A3006 RMK A01 T01040104  RH  100%=      5-min Rain = 0
KEN1 241430Z 32005KT 10/10 A3006 RMK A01 T01040104  RH  100%=      5-min Rain = 0
KEN1 241431Z 31006KT 11/10 A3006 RMK A01 T01050104  RH  100%=      5-min Rain = 0
KEN1 241432Z 30005KT 10/10 A3006 RMK A01 T01040104  RH  100%=      5-min Rain = 0
KEN1 241433Z 31004KT 10/10 A3006 RMK A01 T01040103  RH  100%=      5-min Rain = 0
KEN1 241434Z 31003KT 10/10 A3007 RMK A01 T01040104  RH  100%=      5-min Rain = 0
KEN1 241435Z 31002KT 10/10 A3007 RMK A01 T01030103  RH  100%=      5-min Rain = 0
KEN1 241436Z 29000KT 10/10 A3007 RMK A01 T01030103  RH  100%=      5-min Rain = 0
KEN1 241437Z 28001KT 10/10 A3007 RMK A01 T01030103  RH  100%=      5-min Rain = 0
KEN1 241438Z 24001KT 10/10 A3007 RMK A01 T01040103  RH  100%=      5-min Rain = 0
KEN1 241439Z 33002KT 10/10 A3007 RMK A01 T01040104  RH  100%=      5-min Rain = 0
KEN1 241440Z 34004KT 11/11 A3007 RMK A01 T01050105  RH  100%=      5-min Rain = 0
KEN1 241441Z 34003KT 10/10 A3006 RMK A01 T01040104  RH  100%=      5-min Rain = 0
KEN1 241442Z 30002KT 10/10 A3006 RMK A01 T01040104  RH  100%=      5-min Rain = 0
KEN1 241443Z 31002KT 11/10 A3006 RMK A01 T01050104  RH  100%=      5-min Rain = 0
KEN1 241444Z 28002KT 11/11 A3007 RMK A01 T01050105  RH  100%=      5-min Rain = 0
KEN1 241445Z 28001KT 11/10 A3007 RMK A01 T01050104  RH  100%=      5-min Rain = 0
KEN1 241446Z 31002KT 11/11 A3007 RMK A01 T01050105  RH  100%=      5-min Rain = 0
KEN1 241447Z 28000KT 11/11 A3007 RMK A01 T01050105  RH  100%=      5-min Rain = 0
KEN1 241448Z 26000KT 11/10 A3006 RMK A01 T01050104  RH  100%=      5-min Rain = 0
KEN1 241449Z 25001KT 11/10 A3006 RMK A01 T01050104  RH  100%=      5-min Rain = 0
KEN1 241450Z 29001KT 11/11 A3006 RMK A01 T01060105  RH  100%=      5-min Rain = 0
KEN1 241451Z 30003KT 11/11 A3006 RMK A01 T01060106  RH  100%=      5-min Rain = 0
KEN1 241452Z 29002KT 11/11 A3006 RMK A01 T01060105  RH  100%=      5-min Rain = 0
KEN1 241453Z 29003KT 11/11 A3006 RMK A01 T01060106  RH  100%=      5-min Rain = 0
KEN1 241454Z 29003KT 11/11 A3006 RMK A01 T01070106  RH  100%=      5-min Rain = 0
KEN1 241455Z 30002KT 11/11 A3006 RMK A01 T01060105  RH  100%=      5-min Rain = 0
KEN1 241456Z 30002KT 11/10 A3006 RMK A01 T01050104  RH  099%=      5-min Rain = 0
KEN1 241457Z 29002KT 11/11 A3006 RMK A01 T01050105  RH  100%=      5-min Rain = 0
KEN1 241458Z 33001KT 10/10 A3006 RMK A01 T01040103  RH  099%=      5-min Rain = 0
KEN1 241459Z 32001KT 10/10 A3006 RMK A01 T01040103  RH  099%=      5-min Rain = 0
KEN1 241500Z 32001KT 11/10 A3006 RMK A01 T01050104  RH  099%=      5-min Rain = 0
KEN1 241501Z 30001KT 11/10 A3006 RMK A01 T01050104  RH  099%=      5-min Rain = 0
KEN1 241502Z 04000KT 11/10 A3006 RMK A01 T01050104  RH  099%=      5-min Rain = 0
KEN1 241503Z 07002KT 11/11 A3006 RMK A01 T01070106  RH  100%=      5-min Rain = 0
KEN1 241504Z 09001KT 11/11 A3006 RMK A01 T01080107  RH  100%=      5-min Rain = 0
KEN1 241505Z 12001KT 11/11 A3006 RMK A01 T01080107  RH  099%=      5-min Rain = 0
KEN1 241506Z 14001KT 11/11 A3006 RMK A01 T01070106  RH  099%=      5-min Rain = 0
KEN1 241507Z 17001KT 11/11 A3006 RMK A01 T01060105  RH  099%=      5-min Rain = 0
KEN1 241508Z 24001KT 11/11 A3006 RMK A01 T01070106  RH  099%=      5-min Rain = 0
KEN1 241509Z 26003KT 11/11 A3006 RMK A01 T01080107  RH  099%=      5-min Rain = 0
KEN1 241510Z 27003KT 11/11 A3006 RMK A01 T01090108  RH  099%=      5-min Rain = 0
KEN1 241511Z 27004KT 11/11 A3006 RMK A01 T01080107  RH  099%=      5-min Rain = 0
KEN1 241512Z 26004KT 11/11 A3006 RMK A01 T01080107  RH  099%=      5-min Rain = 0
KEN1 241513Z 26003KT 11/11 A3006 RMK A01 T01080107  RH  099%=      5-min Rain = 0
KEN1 241514Z 27002KT 11/11 A3006 RMK A01 T01100109  RH  099%=      5-min Rain = 0
KEN1 241515Z 28002KT 11/11 A3006 RMK A01 T01120111  RH  099%=      5-min Rain = 0
KEN1 241516Z 28003KT 11/11 A3006 RMK A01 T01140112  RH  099%=      5-min Rain = 0
KEN1 241517Z 30002KT 11/11 A3006 RMK A01 T01110110  RH  099%=      5-min Rain = 0
KEN1 241518Z 31004KT 11/11 A3006 RMK A01 T01100108  RH  099%=      5-min Rain = 0
KEN1 241519Z 32003KT 11/11 A3006 RMK A01 T01100109  RH  099%=      5-min Rain = 0
KEN1 241520Z 00001KT 11/11 A3006 RMK A01 T01080106  RH  099%=      5-min Rain = 0
KEN1 241521Z 02002KT 11/11 A3006 RMK A01 T01100107  RH  099%=      5-min Rain = 0
KEN1 241522Z 35003KT 11/11 A3006 RMK A01 T01120111  RH  099%=      5-min Rain = 0
KEN1 241523Z 35003KT 11/11 A3006 RMK A01 T01130112  RH  099%=      5-min Rain = 0
KEN1 241524Z 34003KT 11/11 A3006 RMK A01 T01120110  RH  098%=      5-min Rain = 0
KEN1 241525Z 35003KT 11/11 A3006 RMK A01 T01120110  RH  098%=      5-min Rain = 0
KEN1 241526Z 35003KT 11/11 A3006 RMK A01 T01120109  RH  098%=      5-min Rain = 0
KEN1 241527Z 34002KT 11/11 A3006 RMK A01 T01120108  RH  098%=      5-min Rain = 0
KEN1 241528Z 28002KT 11/11 A3006 RMK A01 T01120108  RH  097%=      5-min Rain = 0
KEN1 241529Z 22000KT 11/11 A3006 RMK A01 T01140109  RH  097%=      5-min Rain = 0
KEN1 241530Z 29002KT 12/11 A3006 RMK A01 T01150111  RH  097%=      5-min Rain = 0
KEN1 241531Z 28002KT 12/11 A3006 RMK A01 T01150111  RH  097%=      5-min Rain = 0
KEN1 241532Z 34000KT 12/11 A3006 RMK A01 T01150111  RH  097%=      5-min Rain = 0
KEN1 241533Z 33002KT 12/11 A3006 RMK A01 T01150110  RH  097%=      5-min Rain = 0
KEN1 241534Z 31002KT 11/11 A3006 RMK A01 T01140109  RH  097%=      5-min Rain = 0
KEN1 241535Z 30000KT 11/11 A3006 RMK A01 T01130108  RH  096%=      5-min Rain = 0
KEN1 241536Z 33001KT 11/11 A3006 RMK A01 T01130108  RH  096%=      5-min Rain = 0
KEN1 241537Z 32003KT 11/11 A3006 RMK A01 T01130107  RH  096%=      5-min Rain = 0
KEN1 241538Z 30001KT 11/11 A3006 RMK A01 T01140107  RH  096%=      5-min Rain = 0
KEN1 241539Z 29001KT 11/11 A3006 RMK A01 T01130107  RH  096%=      5-min Rain = 0
KEN1 241540Z 31000KT 11/11 A3006 RMK A01 T01130106  RH  096%=      5-min Rain = 0
KEN1 241541Z 00000KT 11/11 A3006 RMK A01 T01130107  RH  096%=      5-min Rain = 0
KEN1 241542Z 00000KT 12/11 A3006 RMK A01 T01150108  RH  096%=      5-min Rain = 0
KEN1 241543Z 19000KT 12/11 A3006 RMK A01 T01160109  RH  095%=      5-min Rain = 0
KEN1 241544Z 17001KT 12/11 A3006 RMK A01 T01170109  RH  095%=      5-min Rain = 0
KEN1 241545Z 15001KT 12/11 A3006 RMK A01 T01190110  RH  094%=      5-min Rain = 0
KEN1 241546Z 20001KT 12/11 A3006 RMK A01 T01200110  RH  093%=      5-min Rain = 0
KEN1 241547Z 21001KT 12/11 A3006 RMK A01 T01200107  RH  091%=      5-min Rain = 0
KEN1 241548Z 21001KT 12/11 A3006 RMK A01 T01200105  RH  090%=      5-min Rain = 0
KEN1 241549Z 22002KT 12/11 A3006 RMK A01 T01200105  RH  090%=      5-min Rain = 0
KEN1 241550Z 22001KT 12/11 A3006 RMK A01 T01210105  RH  090%=      5-min Rain = 0
KEN1 241551Z 27001KT 12/11 A3006 RMK A01 T01230108  RH  090%=      5-min Rain = 0
KEN1 241552Z 28003KT 13/11 A3006 RMK A01 T01250110  RH  090%=      5-min Rain = 0
KEN1 241553Z 28002KT 13/11 A3006 RMK A01 T01260108  RH  089%=      5-min Rain = 0
KEN1 241554Z 28001KT 13/11 A3006 RMK A01 T01270110  RH  090%=      5-min Rain = 0
KEN1 241555Z 26001KT 13/11 A3006 RMK A01 T01280111  RH  089%=      5-min Rain = 0
KEN1 241556Z 23001KT 13/11 A3006 RMK A01 T01280108  RH  088%=      5-min Rain = 0
KEN1 241557Z 23001KT 13/11 A3006 RMK A01 T01280109  RH  088%=      5-min Rain = 0
KEN1 241558Z 27003KT 13/11 A3006 RMK A01 T01280108  RH  087%=      5-min Rain = 0
KEN1 241559Z 24002KT 13/11 A3006 RMK A01 T01280108  RH  088%=      5-min Rain = 0
KEN1 241600Z 23003KT 13/11 A3006 RMK A01 T01290108  RH  087%=      5-min Rain = 0
KEN1 241601Z 24003KT 13/11 A3006 RMK A01 T01300108  RH  086%=      5-min Rain = 0
KEN1 241602Z 26003KT 13/11 A3005 RMK A01 T01310106  RH  085%=      5-min Rain = 0
KEN1 241603Z 31004KT 13/11 A3005 RMK A01 T01320108  RH  085%=      5-min Rain = 0
KEN1 241604Z 31003KT 13/11 A3005 RMK A01 T01320105  RH  084%=      5-min Rain = 0
KEN1 241605Z 28002KT 13/11 A3005 RMK A01 T01310107  RH  085%=      5-min Rain = 0
KEN1 241606Z 29002KT 13/11 A3005 RMK A01 T01330109  RH  085%=      5-min Rain = 0
KEN1 241607Z 28001KT 13/11 A3005 RMK A01 T01340108  RH  084%=      5-min Rain = 0
KEN1 241608Z 29001KT 13/11 A3005 RMK A01 T01340108  RH  084%=      5-min Rain = 0
KEN1 241609Z 24001KT 14/11 A3005 RMK A01 T01350110  RH  085%=      5-min Rain = 0
KEN1 241610Z 25002KT 14/11 A3005 RMK A01 T01370110  RH  084%=      5-min Rain = 0
KEN1 241611Z 26001KT 14/11 A3005 RMK A01 T01380107  RH  082%=      5-min Rain = 0
KEN1 241612Z 17000KT 14/11 A3005 RMK A01 T01380109  RH  083%=      5-min Rain = 0
KEN1 241613Z 21001KT 14/11 A3005 RMK A01 T01380109  RH  083%=      5-min Rain = 0
KEN1 241614Z 11001KT 14/11 A3005 RMK A01 T01400110  RH  082%=      5-min Rain = 0
KEN1 241615Z 11001KT 14/11 A3005 RMK A01 T01410107  RH  080%=      5-min Rain = 0
KEN1 241616Z 11000KT 14/11 A3005 RMK A01 T01410107  RH  080%=      5-min Rain = 0
KEN1 241617Z 09000KT 14/11 A3005 RMK A01 T01430112  RH  082%=      5-min Rain = 0
KEN1 241618Z 23002KT 15/11 A3005 RMK A01 T01460113  RH  081%=      5-min Rain = 0
KEN1 241619Z 24003KT 15/11 A3005 RMK A01 T01470107  RH  077%=      5-min Rain = 0
KEN1 241620Z 23003KT 15/11 A3005 RMK A01 T01460105  RH  076%=      5-min Rain = 0
KEN1 241621Z 24003KT 15/11 A3005 RMK A01 T01460106  RH  077%=      5-min Rain = 0
KEN1 241622Z 24003KT 15/11 A3005 RMK A01 T01460108  RH  078%=      5-min Rain = 0
KEN1 241623Z 26003KT 15/11 A3005 RMK A01 T01460106  RH  077%=      5-min Rain = 0
KEN1 241624Z 28001KT 15/11 A3005 RMK A01 T01470106  RH  077%=      5-min Rain = 0
KEN1 241625Z 32001KT 15/11 A3005 RMK A01 T01460105  RH  076%=      5-min Rain = 0
KEN1 241626Z 33002KT 15/11 A3005 RMK A01 T01460106  RH  077%=      5-min Rain = 0
KEN1 241627Z 32001KT 15/11 A3005 RMK A01 T01480109  RH  077%=      5-min Rain = 0
KEN1 241628Z 20001KT 15/11 A3005 RMK A01 T01510109  RH  076%=      5-min Rain = 0
KEN1 241629Z 20004KT 15/11 A3005 RMK A01 T01530107  RH  074%=      5-min Rain = 0
KEN1 241630Z 21003KT 15/11 A3005 RMK A01 T01530105  RH  073%=      5-min Rain = 0
KEN1 241631Z 21002KT 15/11 A3005 RMK A01 T01530105  RH  073%=      5-min Rain = 0
KEN1 241632Z 28004KT 15/10 A3005 RMK A01 T01530104  RH  073%=      5-min Rain = 0
KEN1 241633Z 29004KT 15/10 A3005 RMK A01 T01530102  RH  072%=      5-min Rain = 0
KEN1 241634Z 29003KT 15/10 A3005 RMK A01 T01530102  RH  072%=      5-min Rain = 0
KEN1 241635Z 29002KT 15/10 A3005 RMK A01 T01540103  RH  072%=      5-min Rain = 0
KEN1 241636Z 29003KT 16/10 A3005 RMK A01 T01550103  RH  071%=      5-min Rain = 0
KEN1 241637Z 29002KT 16/10 A3004 RMK A01 T01560103  RH  071%=      5-min Rain = 0
KEN1 241638Z 31001KT 16/10 A3004 RMK A01 T01560101  RH  069%=      5-min Rain = 0
KEN1 241639Z 23000KT 16/11 A3004 RMK A01 T01570105  RH  071%=      5-min Rain = 0
KEN1 241640Z 25002KT 16/11 A3004 RMK A01 T01600106  RH  070%=      5-min Rain = 0
KEN1 241641Z 26002KT 16/10 A3004 RMK A01 T01620104  RH  069%=      5-min Rain = 0
KEN1 241642Z 28004KT 16/10 A3004 RMK A01 T01630099  RH  066%=      5-min Rain = 0
KEN1 241643Z 29004KT 16/10 A3004 RMK A01 T01620099  RH  066%=      5-min Rain = 0
KEN1 241644Z 27004KT 16/10 A3004 RMK A01 T01620098  RH  066%=      5-min Rain = 0
KEN1 241645Z 27004KT 16/10 A3004 RMK A01 T01630097  RH  065%=      5-min Rain = 0
KEN1 241646Z 29004KT 16/10 A3004 RMK A01 T01640099  RH  065%=      5-min Rain = 0
KEN1 241647Z 30003KT 17/10 A3004 RMK A01 T01650100  RH  065%=      5-min Rain = 0
KEN1 241648Z 28005KT 17/10 A3004 RMK A01 T01670103  RH  066%=      5-min Rain = 0
KEN1 241649Z 28003KT 17/10 A3004 RMK A01 T01690099  RH  064%=      5-min Rain = 0
KEN1 241650Z 31003KT 17/10 A3004 RMK A01 T01710104  RH  065%=      5-min Rain = 0
KEN1 241651Z 33002KT 17/10 A3004 RMK A01 T01720101  RH  063%=      5-min Rain = 0
KEN1 241652Z 32001KT 17/10 A3004 RMK A01 T01720097  RH  061%=      5-min Rain = 0
KEN1 241653Z 25001KT 17/10 A3004 RMK A01 T01730101  RH  063%=      5-min Rain = 0
KEN1 241654Z 33003KT 18/10 A3004 RMK A01 T01750100  RH  062%=      5-min Rain = 0
KEN1 241655Z 33003KT 18/10 A3004 RMK A01 T01760098  RH  060%=      5-min Rain = 0
KEN1 241656Z 35002KT 18/10 A3004 RMK A01 T01760097  RH  059%=      5-min Rain = 0
KEN1 241657Z 00001KT 18/10 A3004 RMK A01 T01760096  RH  059%=      5-min Rain = 0
KEN1 241658Z 01003KT 18/10 A3004 RMK A01 T01750095  RH  059%=      5-min Rain = 0
KEN1 241659Z 02002KT 18/10 A3004 RMK A01 T01760098  RH  060%=      5-min Rain = 0
KEN1 241700Z 32001KT 18/10 A3004 RMK A01 T01780100  RH  060%=      5-min Rain = 0
KEN1 241701Z 23000KT 18/10 A3004 RMK A01 T01800103  RH  061%=      5-min Rain = 0
KEN1 241702Z 22003KT 18/11 A3004 RMK A01 T01830105  RH  060%=      5-min Rain = 0
KEN1 241703Z 23002KT 18/10 A3004 RMK A01 T01840104  RH  060%=      5-min Rain = 0
KEN1 241704Z 28002KT 19/10 A3004 RMK A01 T01850102  RH  058%=      5-min Rain = 0
KEN1 241705Z 29004KT 19/10 A3004 RMK A01 T01850097  RH  057%=      5-min Rain = 0
KEN1 241706Z 31003KT 18/09 A3004 RMK A01 T01830092  RH  055%=      5-min Rain = 0
KEN1 241707Z 31002KT 18/09 A3004 RMK A01 T01820092  RH  056%=      5-min Rain = 0
KEN1 241708Z 30001KT 18/10 A3004 RMK A01 T01820095  RH  057%=      5-min Rain = 0
KEN1 241709Z 33003KT 18/09 A3004 RMK A01 T01830092  RH  055%=      5-min Rain = 0
KEN1 241710Z 33002KT 18/09 A3004 RMK A01 T01830092  RH  056%=      5-min Rain = 0
KEN1 241711Z 34003KT 18/09 A3004 RMK A01 T01830093  RH  056%=      5-min Rain = 0
KEN1 241712Z 35002KT 18/09 A3003 RMK A01 T01830091  RH  055%=      5-min Rain = 0
KEN1 241713Z 00002KT 18/09 A3003 RMK A01 T01830092  RH  056%=      5-min Rain = 0
KEN1 241714Z 35003KT 18/09 A3003 RMK A01 T01830091  RH  055%=      5-min Rain = 0
KEN1 241715Z 35004KT 18/09 A3003 RMK A01 T01840090  RH  054%=      5-min Rain = 0
KEN1 241716Z 31002KT 19/09 A3003 RMK A01 T01850092  RH  055%=      5-min Rain = 0
KEN1 241717Z 27000KT 19/09 A3003 RMK A01 T01860090  RH  054%=      5-min Rain = 0
KEN1 241718Z 33000KT 19/09 A3003 RMK A01 T01870092  RH  054%=      5-min Rain = 0
KEN1 241719Z 23001KT 19/10 A3003 RMK A01 T01900098  RH  055%=      5-min Rain = 0
KEN1 241720Z 23002KT 19/10 A3003 RMK A01 T01930099  RH  054%=      5-min Rain = 0
KEN1 241721Z 21001KT 19/10 A3003 RMK A01 T01940098  RH  054%=      5-min Rain = 0
KEN1 241722Z 18003KT 20/10 A3003 RMK A01 T01950098  RH  054%=      5-min Rain = 0
KEN1 241723Z 18003KT 20/10 A3003 RMK A01 T01950096  RH  053%=      5-min Rain = 0
KEN1 241724Z 17003KT 20/10 A3003 RMK A01 T01950095  RH  052%=      5-min Rain = 0
KEN1 241725Z 17002KT 20/10 A3003 RMK A01 T01950096  RH  052%=      5-min Rain = 0
KEN1 241726Z 19001KT 20/10 A3003 RMK A01 T01960098  RH  053%=      5-min Rain = 0
KEN1 241727Z 18003KT 20/10 A3003 RMK A01 T01970097  RH  052%=      5-min Rain = 0
KEN1 241728Z 14002KT 20/10 A3003 RMK A01 T01980095  RH  051%=      5-min Rain = 0
KEN1 241729Z 15001KT 20/10 A3003 RMK A01 T02000096  RH  051%=      5-min Rain = 0
KEN1 241730Z 30002KT 20/10 A3003 RMK A01 T02010096  RH  051%=      5-min Rain = 0
KEN1 241731Z 23004KT 20/09 A3003 RMK A01 T02020091  RH  049%=      5-min Rain = 0
KEN1 241732Z 24005KT 20/09 A3003 RMK A01 T02020085  RH  047%=      5-min Rain = 0
KEN1 241733Z 23002KT 20/09 A3003 RMK A01 T02020085  RH  047%=      5-min Rain = 0
KEN1 241734Z 26003KT 20/09 A3003 RMK A01 T02020086  RH  047%=      5-min Rain = 0
KEN1 241735Z 26003KT 20/09 A3003 RMK A01 T02020086  RH  047%=      5-min Rain = 0
KEN1 241736Z 25005KT 20/08 A3003 RMK A01 T02030083  RH  046%=      5-min Rain = 0
KEN1 241737Z 24002KT 20/08 A3003 RMK A01 T02030084  RH  046%=      5-min Rain = 0
KEN1 241738Z 20002KT 20/09 A3003 RMK A01 T02030089  RH  048%=      5-min Rain = 0
KEN1 241739Z 25003KT 21/09 A3003 RMK A01 T02050094  RH  049%=      5-min Rain = 0
KEN1 241740Z 25003KT 21/09 A3003 RMK A01 T02060085  RH  046%=      5-min Rain = 0
KEN1 241741Z 23001KT 21/08 A3003 RMK A01 T02070083  RH  045%=      5-min Rain = 0
KEN1 241742Z 31001KT 21/09 A3003 RMK A01 T02070086  RH  046%=      5-min Rain = 0
KEN1 241743Z 30001KT 21/08 A3003 RMK A01 T02070082  RH  045%=      5-min Rain = 0
KEN1 241744Z 22003KT 21/09 A3003 RMK A01 T02070089  RH  047%=      5-min Rain = 0
KEN1 241745Z 19002KT 21/09 A3003 RMK A01 T02080085  RH  045%=      5-min Rain = 0
KEN1 241746Z 16002KT 21/09 A3003 RMK A01 T02080087  RH  046%=      5-min Rain = 0
KEN1 241747Z 17002KT 21/08 A3003 RMK A01 T02090080  RH  043%=      5-min Rain = 0
KEN1 241748Z 16002KT 21/09 A3003 RMK A01 T02090085  RH  045%=      5-min Rain = 0
KEN1 241749Z 12003KT 21/08 A3003 RMK A01 T02100084  RH  044%=      5-min Rain = 0
KEN1 241750Z 12003KT 21/08 A3003 RMK A01 T02110079  RH  042%=      5-min Rain = 0
KEN1 241751Z 15002KT 21/08 A3003 RMK A01 T02110081  RH  043%=      5-min Rain = 0
KEN1 241752Z 13004KT 21/08 A3002 RMK A01 T02110080  RH  043%=      5-min Rain = 0
KEN1 241753Z 16003KT 21/08 A3002 RMK A01 T02110078  RH  042%=      5-min Rain = 0
KEN1 241754Z 16003KT 21/08 A3002 RMK A01 T02100077  RH  042%=      5-min Rain = 0
KEN1 241755Z 16001KT 21/08 A3002 RMK A01 T02090077  RH  043%=      5-min Rain = 0
KEN1 241756Z 23001KT 21/08 A3002 RMK A01 T02090079  RH  043%=      5-min Rain = 0
KEN1 241757Z 18002KT 21/08 A3002 RMK A01 T02100083  RH  044%=      5-min Rain = 0
KEN1 241758Z 18001KT 21/08 A3002 RMK A01 T02120076  RH  041%=      5-min Rain = 0
KEN1 241759Z 20001KT 21/08 A3002 RMK A01 T02120075  RH  041%=      5-min Rain = 0
KEN1 241800Z 20001KT 21/08 A3002 RMK A01 T02120076  RH  041%=      5-min Rain = 0
KEN1 241801Z 16001KT 21/07 A3002 RMK A01 T02130074  RH  041%=      5-min Rain = 0
KEN1 241802Z 09002KT 21/07 A3002 RMK A01 T02130073  RH  040%=      5-min Rain = 0
KEN1 241803Z 02002KT 21/08 A3002 RMK A01 T02140076  RH  041%=      5-min Rain = 0
KEN1 241804Z 04001KT 21/08 A3002 RMK A01 T02140079  RH  042%=      5-min Rain = 0
KEN1 241805Z 13002KT 22/08 A3002 RMK A01 T02150076  RH  041%=      5-min Rain = 0
KEN1 241806Z 14003KT 22/08 A3002 RMK A01 T02160078  RH  041%=      5-min Rain = 0
KEN1 241807Z 11001KT 22/07 A3002 RMK A01 T02170072  RH  039%=      5-min Rain = 0
KEN1 241808Z 09001KT 22/07 A3002 RMK A01 T02160073  RH  040%=      5-min Rain = 0
KEN1 241809Z 10001KT 22/07 A3002 RMK A01 T02170073  RH  040%=      5-min Rain = 0
KEN1 241810Z 15002KT 22/07 A3002 RMK A01 T02180072  RH  039%=      5-min Rain = 0
KEN1 241811Z 16001KT 22/07 A3002 RMK A01 T02180070  RH  038%=      5-min Rain = 0
KEN1 241812Z 14002KT 22/07 A3002 RMK A01 T02190069  RH  038%=      5-min Rain = 0
KEN1 241813Z 12002KT 22/07 A3002 RMK A01 T02190067  RH  037%=      5-min Rain = 0
KEN1 241814Z 18001KT 22/07 A3002 RMK A01 T02190066  RH  037%=      5-min Rain = 0
KEN1 241815Z 14002KT 22/07 A3001 RMK A01 T02190070  RH  038%=      5-min Rain = 0
KEN1 241816Z 12002KT 22/07 A3001 RMK A01 T02220068  RH  037%=      5-min Rain = 0
KEN1 241817Z 10002KT 22/06 A3001 RMK A01 T02240055  RH  033%=      5-min Rain = 0
KEN1 241818Z 11000KT 22/05 A3001 RMK A01 T02240052  RH  033%=      5-min Rain = 0
KEN1 241819Z 19000KT 22/06 A3001 RMK A01 T02230057  RH  034%=      5-min Rain = 0
KEN1 241820Z 35001KT 22/06 A3001 RMK A01 T02240055  RH  033%=      5-min Rain = 0
KEN1 241821Z 02001KT 23/06 A3001 RMK A01 T02250057  RH  034%=      5-min Rain = 0
KEN1 241822Z 29001KT 23/06 A3001 RMK A01 T02250055  RH  033%=      5-min Rain = 0
KEN1 241823Z 09001KT 23/07 A3001 RMK A01 T02270065  RH  035%=      5-min Rain = 0
KEN1 241824Z 12002KT 23/06 A3001 RMK A01 T02300063  RH  034%=      5-min Rain = 0
KEN1 241825Z 10001KT 23/07 A3001 RMK A01 T02330066  RH  034%=      5-min Rain = 0
KEN1 241826Z 11001KT 24/06 A3001 RMK A01 T02360064  RH  033%=      5-min Rain = 0
KEN1 241827Z 00001KT 24/06 A30 RMK A01 T02360062  RH  033%=      5-min Rain = 0
KEN1 241828Z 32003KT 24/06 A30 RMK A01 T02370057  RH  031%=      5-min Rain = 0
KEN1 241829Z 31003KT 24/04 A30 RMK A01 T02350043  RH  029%=      5-min Rain = 0
KEN1 241830Z 31000KT 23/04 A30 RMK A01 T02320041  RH  029%=      5-min Rain = 0
KEN1 241831Z 18000KT 23/05 A30 RMK A01 T02320048  RH  030%=      5-min Rain = 0
KEN1 241832Z 20000KT 23/06 A30 RMK A01 T02330057  RH  032%=      5-min Rain = 0
KEN1 241833Z 21000KT 24/06 A30 RMK A01 T02360064  RH  033%=      5-min Rain = 0
KEN1 241834Z 35003KT 24/06 A30 RMK A01 T02390056  RH  031%=      5-min Rain = 0
KEN1 241835Z 33005KT 24/06 A30 RMK A01 T02400063  RH  032%=      5-min Rain = 0
KEN1 241836Z 32006KT 24/07 A30 RMK A01 T02400069  RH  033%=      5-min Rain = 0
KEN1 241837Z 33005KT 24/06 A30 RMK A01 T02400061  RH  031%=      5-min Rain = 0
KEN1 241838Z 33005KT 24/06 A30 RMK A01 T02370056  RH  031%=      5-min Rain = 0
KEN1 241839Z 01002KT 24/05 A30 RMK A01 T02370053  RH  030%=      5-min Rain = 0
KEN1 241840Z 03001KT 24/05 A30 RMK A01 T02380053  RH  030%=      5-min Rain = 0
KEN1 241841Z 00002KT 24/05 A30 RMK A01 T02390047  RH  029%=      5-min Rain = 0
KEN1 241842Z 34005KT 24/05 A2999 RMK A01 T02400052  RH  030%=      5-min Rain = 0
KEN1 241843Z 30002KT 24/04 A2999 RMK A01 T02400044  RH  028%=      5-min Rain = 0
KEN1 241844Z 27002KT 24/06 A2999 RMK A01 T02410055  RH  030%=      5-min Rain = 0
KEN1 241845Z 28000KT 24/04 A2999 RMK A01 T02410042  RH  027%=      5-min Rain = 0
KEN1 241846Z 14001KT 24/04 A2999 RMK A01 T02410042  RH  027%=      5-min Rain = 0
KEN1 241847Z 17002KT 24/06 A2999 RMK A01 T02420055  RH  030%=      5-min Rain = 0
KEN1 241848Z 22003KT 24/06 A2999 RMK A01 T02430057  RH  030%=      5-min Rain = 0
KEN1 241849Z 21003KT 24/05 A2999 RMK A01 T02430053  RH  029%=      5-min Rain = 0
KEN1 241850Z 20002KT 24/06 A2999 RMK A01 T02420055  RH  030%=      5-min Rain = 0
KEN1 241851Z 20003KT 24/06 A2999 RMK A01 T02420056  RH  030%=      5-min Rain = 0
KEN1 241852Z 19004KT 24/06 A2999 RMK A01 T02430058  RH  030%=      5-min Rain = 0
KEN1 241853Z 19005KT 24/06 A2999 RMK A01 T02440055  RH  030%=      5-min Rain = 0
KEN1 241854Z 18003KT 24/05 A2999 RMK A01 T02430047  RH  028%=      5-min Rain = 0
KEN1 241855Z 17004KT 24/05 A2999 RMK A01 T02420049  RH  029%=      5-min Rain = 0
KEN1 241856Z 17004KT 24/04 A2999 RMK A01 T02420042  RH  027%=      5-min Rain = 0
KEN1 241857Z 18004KT 24/04 A2999 RMK A01 T02420041  RH  027%=      5-min Rain = 0
KEN1 241858Z 18002KT 24/04 A2999 RMK A01 T02400037  RH  027%=      5-min Rain = 0
KEN1 241859Z 14001KT 24/04 A2999 RMK A01 T02400043  RH  028%=      5-min Rain = 0
KEN1 241900Z 09001KT 24/04 A2998 RMK A01 T02420042  RH  027%=      5-min Rain = 0
KEN1 241901Z 18002KT 25/06 A2998 RMK A01 T02450056  RH  030%=      5-min Rain = 0
KEN1 241902Z 28001KT 25/05 A2998 RMK A01 T02490046  RH  027%=      5-min Rain = 0
KEN1 241903Z 34001KT 25/04 A2998 RMK A01 T02500044  RH  026%=      5-min Rain = 0
KEN1 241904Z 03001KT 25/05 A2998 RMK A01 T02510053  RH  028%=      5-min Rain = 0
KEN1 241905Z 02000KT 25/07 A2998 RMK A01 T02530065  RH  030%=      5-min Rain = 0
KEN1 241906Z 06002KT 26/05 A2998 RMK A01 T02560051  RH  027%=      5-min Rain = 0
KEN1 241907Z 07003KT 26/05 A2998 RMK A01 T02570050  RH  026%=      5-min Rain = 0
KEN1 241908Z 01004KT 26/04 A2998 RMK A01 T02570044  RH  025%=      5-min Rain = 0
KEN1 241909Z 00005KT 25/04 A2998 RMK A01 T02540042  RH  026%=      5-min Rain = 0
KEN1 241910Z 35002KT 25/04 A2998 RMK A01 T02510042  RH  026%=      5-min Rain = 0
KEN1 241911Z 01005KT 25/05 A2997 RMK A01 T02510046  RH  027%=      5-min Rain = 0
KEN1 241912Z 35003KT 25/04 A2997 RMK A01 T02520035  RH  024%=      5-min Rain = 0
KEN1 241913Z 35003KT 25/04 A2997 RMK A01 T02520037  RH  025%=      5-min Rain = 0
KEN1 241914Z 31004KT 25/04 A2997 RMK A01 T02530041  RH  025%=      5-min Rain = 0
KEN1 241915Z 33003KT 25/04 A2997 RMK A01 T02540038  RH  025%=      5-min Rain = 0
KEN1 241916Z 14002KT 25/04 A2997 RMK A01 T02540040  RH  025%=      5-min Rain = 0
KEN1 241917Z 14004KT 25/05 A2997 RMK A01 T02540046  RH  026%=      5-min Rain = 0
KEN1 241918Z 14006KT 26/05 A2997 RMK A01 T02560045  RH  026%=      5-min Rain = 0
KEN1 241919Z 15007KT 26/04 A2997 RMK A01 T02560039  RH  025%=      5-min Rain = 0
KEN1 241920Z 15008KT 26/04 A2997 RMK A01 T02550038  RH  025%=      5-min Rain = 0
KEN1 241921Z 15006KT 25/04 A2997 RMK A01 T02540039  RH  025%=      5-min Rain = 0
KEN1 241922Z 14003KT 25/04 A2997 RMK A01 T02530035  RH  024%=      5-min Rain = 0
KEN1 241923Z 12003G8KT 25/04 A2997 RMK A01 T02520036  RH  025%=      5-min Rain = 0
KEN1 241924Z 12007KT 25/04 A2997 RMK A01 T02530043  RH  026%=      5-min Rain = 0
KEN1 241925Z 14006KT 26/04 A2997 RMK A01 T02550042  RH  025%=      5-min Rain = 0
KEN1 241926Z 13004KT 26/04 A2997 RMK A01 T02560037  RH  024%=      5-min Rain = 0
KEN1 241927Z 11005KT 26/04 A2997 RMK A01 T02550038  RH  025%=      5-min Rain = 0
KEN1 241928Z 11003KT 26/04 A2997 RMK A01 T02550035  RH  024%=      5-min Rain = 0
KEN1 241929Z 11003KT 25/04 A2997 RMK A01 T02540036  RH  024%=      5-min Rain = 0
KEN1 241930Z 16002KT 25/04 A2997 RMK A01 T02540039  RH  025%=      5-min Rain = 0
KEN1 241931Z 20004KT 26/05 A2997 RMK A01 T02550048  RH  026%=      5-min Rain = 0
KEN1 241932Z 22004KT 26/04 A2997 RMK A01 T02560042  RH  025%=      5-min Rain = 0
KEN1 241933Z 20004KT 26/04 A2997 RMK A01 T02550042  RH  025%=      5-min Rain = 0
KEN1 241934Z 21003KT 26/04 A2996 RMK A01 T02550042  RH  025%=      5-min Rain = 0
KEN1 241935Z 23002KT 26/04 A2996 RMK A01 T02550040  RH  025%=      5-min Rain = 0
KEN1 241936Z 27001KT 26/04 A2996 RMK A01 T02550041  RH  025%=      5-min Rain = 0
KEN1 241937Z 15001KT 26/05 A2996 RMK A01 T02560045  RH  026%=      5-min Rain = 0
KEN1 241938Z 18003KT 26/04 A2996 RMK A01 T02570037  RH  024%=      5-min Rain = 0
KEN1 241939Z 20005KT 26/05 A2996 RMK A01 T02580049  RH  026%=      5-min Rain = 0
KEN1 241940Z 20003KT 26/04 A2996 RMK A01 T02590041  RH  025%=      5-min Rain = 0
KEN1 241941Z 22002KT 26/04 A2996 RMK A01 T02590043  RH  025%=      5-min Rain = 0
KEN1 241942Z 20005KT 26/04 A2996 RMK A01 T02590042  RH  025%=      5-min Rain = 0
KEN1 241943Z 21005KT 26/05 A2996 RMK A01 T02590047  RH  026%=      5-min Rain = 0
KEN1 241944Z 23005KT 26/05 A2996 RMK A01 T02600049  RH  026%=      5-min Rain = 0
KEN1 241945Z 24005KT 26/05 A2996 RMK A01 T02610048  RH  025%=      5-min Rain = 0
KEN1 241946Z 24005KT 26/04 A2995 RMK A01 T02610039  RH  024%=      5-min Rain = 0
KEN1 241947Z 23005KT 26/04 A2995 RMK A01 T02590044  RH  025%=      5-min Rain = 0
KEN1 241948Z 21005KT 26/05 A2995 RMK A01 T02600045  RH  025%=      5-min Rain = 0
KEN1 241949Z 19005KT 26/05 A2995 RMK A01 T02610049  RH  025%=      5-min Rain = 0
KEN1 241950Z 19004KT 26/04 A2995 RMK A01 T02620041  RH  024%=      5-min Rain = 0
KEN1 241951Z 20003KT 26/05 A2995 RMK A01 T02620047  RH  025%=      5-min Rain = 0
KEN1 241952Z 21004KT 26/04 A2995 RMK A01 T02630041  RH  024%=      5-min Rain = 0
KEN1 241953Z 19007KT 26/05 A2995 RMK A01 T02630046  RH  025%=      5-min Rain = 0
KEN1 241954Z 19006KT 26/04 A2995 RMK A01 T02640039  RH  023%=      5-min Rain = 0
KEN1 241955Z 14002KT 26/04 A2995 RMK A01 T02640035  RH  023%=      5-min Rain = 0
KEN1 241956Z 18002KT 26/03 A2995 RMK A01 T02640029  RH  022%=      5-min Rain = 0
KEN1 241957Z 23003KT 26/04 A2995 RMK A01 T02640036  RH  023%=      5-min Rain = 0
KEN1 241958Z 20005KT 26/04 A2995 RMK A01 T02640042  RH  024%=      5-min Rain = 0
KEN1 241959Z 17004KT 27/05 A2995 RMK A01 T02660045  RH  024%=      5-min Rain = 0
KEN1 242000Z 17002KT 27/04 A2995 RMK A01 T02670035  RH  022%=      5-min Rain = 0
KEN1 242001Z 10006KT 27/04 A2995 RMK A01 T02660043  RH  024%=      5-min Rain = 0
KEN1 242002Z 09006KT 27/05 A2995 RMK A01 T02680047  RH  024%=      5-min Rain = 0
KEN1 242003Z 09006KT 27/05 A2995 RMK A01 T02710046  RH  024%=      5-min Rain = 0
KEN1 242004Z 13005KT 27/04 A2995 RMK A01 T02690039  RH  023%=      5-min Rain = 0
KEN1 242005Z 15004KT 27/04 A2995 RMK A01 T02670037  RH  023%=      5-min Rain = 0
KEN1 242006Z 15004KT 27/04 A2995 RMK A01 T02660044  RH  024%=      5-min Rain = 0
KEN1 242007Z 12003KT 27/04 A2995 RMK A01 T02660042  RH  024%=      5-min Rain = 0
KEN1 242008Z 11004KT 27/05 A2995 RMK A01 T02680045  RH  024%=      5-min Rain = 0
KEN1 242009Z 11007KT 27/05 A2995 RMK A01 T02690048  RH  024%=      5-min Rain = 0
KEN1 242010Z 10007KT 27/05 A2995 RMK A01 T02730054  RH  025%=      5-min Rain = 0
KEN1 242011Z 11005KT 27/04 A2995 RMK A01 T02740041  RH  022%=      5-min Rain = 0
KEN1 242012Z 10006KT 27/04 A2995 RMK A01 T02720043  RH  023%=      5-min Rain = 0
KEN1 242013Z 12004KT 27/04 A2995 RMK A01 T02700038  RH  023%=      5-min Rain = 0
KEN1 242014Z 16005KT 27/04 A2995 RMK A01 T02690041  RH  023%=      5-min Rain = 0
KEN1 242015Z 16004KT 27/04 A2995 RMK A01 T02680035  RH  022%=      5-min Rain = 0
KEN1 242016Z 14003KT 27/04 A2995 RMK A01 T02670040  RH  023%=      5-min Rain = 0
KEN1 242017Z 12002KT 27/03 A2995 RMK A01 T02670031  RH  022%=      5-min Rain = 0
KEN1 242018Z 06002KT 27/04 A2995 RMK A01 T02670036  RH  023%=      5-min Rain = 0
KEN1 242019Z 06001KT 27/04 A2995 RMK A01 T02670037  RH  023%=      5-min Rain = 0
KEN1 242020Z 34002KT 27/04 A2994 RMK A01 T02690042  RH  023%=      5-min Rain = 0
KEN1 242021Z 29002KT 27/04 A2994 RMK A01 T02720044  RH  023%=      5-min Rain = 0
KEN1 242022Z 21004KT 27/05 A2994 RMK A01 T02740051  RH  024%=      5-min Rain = 0
KEN1 242023Z 12003KT 28/04 A2994 RMK A01 T02750037  RH  022%=      5-min Rain = 0
KEN1 242024Z 15006KT 28/02 A2994 RMK A01 T02760023  RH  020%=      5-min Rain = 0
KEN1 242025Z 20015G20KT 28/01 A2994 RMK A01 T02780007  RH  017%=      5-min Rain = 0
KEN1 242026Z 21012KT 28/01 A2994 RMK A01 T02840006  RH  016%=      5-min Rain = 0
KEN1 242027Z 21010KT 29/M00 A2994 RMK A01 T02891002  RH  015%=      5-min Rain = 0
KEN1 242028Z 20013KT 29/M00 A2994 RMK A01 T02921001  RH  015%=      5-min Rain = 0
KEN1 242029Z 20011KT 29/M02 A2994 RMK A01 T02921016  RH  013%=      5-min Rain = 0
KEN1 242030Z 22010KT 29/M01 A2994 RMK A01 T02901006  RH  015%=      5-min Rain = 0
KEN1 242031Z 21016KT 29/M00 A2994 RMK A01 T02911003  RH  015%=      5-min Rain = 0
KEN1 242032Z 21015KT 29/M01 A2994 RMK A01 T02911006  RH  014%=      5-min Rain = 0
KEN1 242033Z 21016KT 29/M02 A2994 RMK A01 T02911015  RH  014%=      5-min Rain = 0
KEN1 242034Z 21013KT 29/M02 A2994 RMK A01 T02891022  RH  013%=      5-min Rain = 0
KEN1 242035Z 22012KT 29/M02 A2994 RMK A01 T02871017  RH  014%=      5-min Rain = 0
KEN1 242036Z 21010KT 29/M01 A2994 RMK A01 T02871013  RH  014%=      5-min Rain = 0
KEN1 242037Z 20009KT 29/M02 A2994 RMK A01 T02871024  RH  013%=      5-min Rain = 0
KEN1 242038Z 20008KT 29/M02 A2994 RMK A01 T02861019  RH  014%=      5-min Rain = 0
KEN1 242039Z 21008KT 29/M01 A2994 RMK A01 T02871008  RH  015%=      5-min Rain = 0
KEN1 242040Z 21008KT 29/M02 A2993 RMK A01 T02891019  RH  013%=      5-min Rain = 0
KEN1 242041Z 21009G14KT 29/M01 A2993 RMK A01 T02871012  RH  014%=      5-min Rain = 0
KEN1 242042Z 21015KT 29/M01 A2993 RMK A01 T02881013  RH  014%=      5-min Rain = 0
KEN1 242043Z 22015G20KT 29/M01 A2993 RMK A01 T02901013  RH  014%=      5-min Rain = 0
KEN1 242044Z 22014KT 29/M02 A2993 RMK A01 T02911023  RH  013%=      5-min Rain = 0
KEN1 242045Z 20013KT 29/M01 A2993 RMK A01 T02901014  RH  014%=      5-min Rain = 0
KEN1 242046Z 19015KT 29/M01 A2993 RMK A01 T02931008  RH  014%=      5-min Rain = 0
KEN1 242047Z 22014KT 30/M01 A2993 RMK A01 T02951011  RH  014%=      5-min Rain = 0
KEN1 242048Z 23012KT 29/M03 A2993 RMK A01 T02941027  RH  012%=      5-min Rain = 0
KEN1 242049Z 21011KT 29/M02 A2993 RMK A01 T02901021  RH  013%=      5-min Rain = 0
KEN1 242050Z 23014G20KT 29/M01 A2993 RMK A01 T02901014  RH  014%=      5-min Rain = 0
KEN1 242051Z 24014KT 29/M02 A2993 RMK A01 T02901024  RH  013%=      5-min Rain = 0
KEN1 242052Z 21011KT 29/M01 A2993 RMK A01 T02901011  RH  014%=      5-min Rain = 0
KEN1 242053Z 20013KT 29/M02 A2993 RMK A01 T02911017  RH  013%=      5-min Rain = 0
KEN1 242054Z 20009KT 29/M02 A2993 RMK A01 T02891020  RH  013%=      5-min Rain = 0
KEN1 242055Z 21010KT 29/M02 A2993 RMK A01 T02881021  RH  013%=      5-min Rain = 0
KEN1 242056Z 21011KT 29/M01 A2993 RMK A01 T02881013  RH  014%=      5-min Rain = 0
KEN1 242057Z 24012KT 29/M01 A2993 RMK A01 T02891014  RH  014%=      5-min Rain = 0
KEN1 242058Z 25013KT 29/M03 A2993 RMK A01 T02891031  RH  012%=      5-min Rain = 0
KEN1 242059Z 26013KT 29/M03 A2993 RMK A01 T02881030  RH  012%=      5-min Rain = 0
KEN1 242100Z 26009KT 29/M04 A2993 RMK A01 T02881039  RH  012%=      5-min Rain = 0
KEN1 242101Z 25010KT 29/M02 A2993 RMK A01 T02861020  RH  014%=      5-min Rain = 0
KEN1 242102Z 23010KT 29/M01 A2993 RMK A01 T02901012  RH  014%=      5-min Rain = 0
KEN1 242103Z 22009KT 29/M03 A2993 RMK A01 T02901028  RH  012%=      5-min Rain = 0
KEN1 242104Z 22007KT 29/M02 A2992 RMK A01 T02881024  RH  013%=      5-min Rain = 0
KEN1 242105Z 21011G17KT 29/M01 A2992 RMK A01 T02881005  RH  015%=      5-min Rain = 0
KEN1 242106Z 21013KT 29/M01 A2992 RMK A01 T02911009  RH  014%=      5-min Rain = 0
KEN1 242107Z 20012KT 29/M02 A2992 RMK A01 T02911018  RH  013%=      5-min Rain = 0
KEN1 242108Z 20013KT 29/M02 A2992 RMK A01 T02891019  RH  013%=      5-min Rain = 0
KEN1 242109Z 20016KT 29/M02 A2992 RMK A01 T02881017  RH  014%=      5-min Rain = 0
KEN1 242110Z 19018KT 29/M02 A2992 RMK A01 T02881016  RH  014%=      5-min Rain = 0
KEN1 242111Z 20019KT 29/M02 A2992 RMK A01 T02901017  RH  013%=      5-min Rain = 0
KEN1 242112Z 20017KT 29/M03 A2992 RMK A01 T02901025  RH  013%=      5-min Rain = 0
KEN1 242113Z 21012KT 29/M02 A2992 RMK A01 T02891022  RH  013%=      5-min Rain = 0
KEN1 242114Z 21015KT 29/M02 A2992 RMK A01 T02881018  RH  013%=      5-min Rain = 0
KEN1 242115Z 22016KT 29/M01 A2992 RMK A01 T02891009  RH  014%=      5-min Rain = 0
KEN1 242116Z 24015KT 29/M02 A2992 RMK A01 T02911016  RH  014%=      5-min Rain = 0
KEN1 242117Z 23014KT 29/M02 A2992 RMK A01 T02901023  RH  013%=      5-min Rain = 0
KEN1 242118Z 24015KT 29/M02 A2992 RMK A01 T02891017  RH  013%=      5-min Rain = 0
KEN1 242119Z 25016KT 29/M02 A2992 RMK A01 T02901019  RH  013%=      5-min Rain = 0
KEN1 242120Z 26017KT 29/M02 A2992 RMK A01 T02911019  RH  013%=      5-min Rain = 0
KEN1 242121Z 25015KT 29/M02 A2992 RMK A01 T02901017  RH  013%=      5-min Rain = 0
KEN1 242122Z 25013KT 29/M02 A2992 RMK A01 T02901023  RH  013%=      5-min Rain = 0
KEN1 242123Z 24014KT 29/M03 A2992 RMK A01 T02881026  RH  013%=      5-min Rain = 0
KEN1 242124Z 26012KT 29/M03 A2992 RMK A01 T02861028  RH  013%=      5-min Rain = 0
KEN1 242125Z 25008KT 29/M03 A2992 RMK A01 T02861025  RH  013%=      5-min Rain = 0
KEN1 242126Z 26005KT 29/M03 A2992 RMK A01 T02861028  RH  013%=      5-min Rain = 0
KEN1 242127Z 27007G12KT 29/M01 A2992 RMK A01 T02861014  RH  014%=      5-min Rain = 0
KEN1 242128Z 27012KT 29/M01 A2992 RMK A01 T02901008  RH  014%=      5-min Rain = 0
KEN1 242129Z 26013KT 29/M02 A2991 RMK A01 T02921017  RH  013%=      5-min Rain = 0
KEN1 242130Z 26011KT 29/M02 A2991 RMK A01 T02921018  RH  013%=      5-min Rain = 0
KEN1 242131Z 22006KT 29/M02 A2991 RMK A01 T02911016  RH  013%=      5-min Rain = 0
KEN1 242132Z 20012G17KT 29/M01 A2991 RMK A01 T02921007  RH  014%=      5-min Rain = 0
KEN1 242133Z 23011G18KT 29/M01 A2991 RMK A01 T02941013  RH  014%=      5-min Rain = 0
KEN1 242134Z 22019KT 29/M02 A2991 RMK A01 T02941018  RH  013%=      5-min Rain = 0
KEN1 242135Z 24014KT 29/M02 A2991 RMK A01 T02931022  RH  013%=      5-min Rain = 0
KEN1 242136Z 23015KT 29/M02 A2991 RMK A01 T02931019  RH  013%=      5-min Rain = 0
KEN1 242137Z 22012KT 29/M02 A2991 RMK A01 T02911022  RH  013%=      5-min Rain = 0
KEN1 242138Z 21016G22KT 29/M01 A2991 RMK A01 T02911014  RH  014%=      5-min Rain = 0
KEN1 242139Z 22016KT 29/M01 A2991 RMK A01 T02931008  RH  014%=      5-min Rain = 0
KEN1 242140Z 24015KT 30/M01 A2991 RMK A01 T02951009  RH  014%=      5-min Rain = 0
KEN1 242141Z 24013KT 30/M02 A2991 RMK A01 T02961018  RH  013%=      5-min Rain = 0
KEN1 242142Z 25015G20KT 30/M02 A2991 RMK A01 T02951019  RH  013%=      5-min Rain = 0
KEN1 242143Z 24018KT 29/M03 A2991 RMK A01 T02941027  RH  012%=      5-min Rain = 0
KEN1 242144Z 25014KT 29/M03 A2991 RMK A01 T02911026  RH  012%=      5-min Rain = 0
KEN1 242145Z 26013KT 29/M02 A2991 RMK A01 T02911024  RH  013%=      5-min Rain = 0
KEN1 242146Z 25014KT 29/M03 A2991 RMK A01 T02901029  RH  012%=      5-min Rain = 0
KEN1 242147Z 24011KT 29/M03 A2991 RMK A01 T02891025  RH  013%=      5-min Rain = 0
KEN1 242148Z 23013KT 29/M01 A2991 RMK A01 T02901014  RH  014%=      5-min Rain = 0
KEN1 242149Z 24013G18KT 29/M02 A2991 RMK A01 T02911021  RH  013%=      5-min Rain = 0
KEN1 242150Z 24013G18KT 29/M03 A2991 RMK A01 T02911026  RH  013%=      5-min Rain = 0
KEN1 242151Z 24011KT 29/M04 A2991 RMK A01 T02891040  RH  011%=      5-min Rain = 0
KEN1 242152Z 25012KT 29/M04 A2991 RMK A01 T02861038  RH  012%=      5-min Rain = 0
KEN1 242153Z 24012KT 29/M02 A2991 RMK A01 T02861024  RH  013%=      5-min Rain = 0
KEN1 242154Z 24010KT 29/M03 A2991 RMK A01 T02871028  RH  013%=      5-min Rain = 0
KEN1 242155Z 24008KT 29/M03 A299 RMK A01 T02881028  RH  013%=      5-min Rain = 0
KEN1 242156Z 24009KT 29/M03 A299 RMK A01 T02881029  RH  013%=      5-min Rain = 0
KEN1 242157Z 20013G18KT 29/M01 A299 RMK A01 T02891009  RH  014%=      5-min Rain = 0
KEN1 242158Z 21019KT 29/M02 A299 RMK A01 T02921021  RH  013%=      5-min Rain = 0
KEN1 242159Z 21014KT 29/M02 A299 RMK A01 T02911020  RH  013%=      5-min Rain = 0
KEN1 242200Z 20014KT 29/M02 A299 RMK A01 T02911022  RH  013%=      5-min Rain = 0
KEN1 242201Z 22014KT 29/M02 A299 RMK A01 T02911020  RH  013%=      5-min Rain = 0
KEN1 242202Z 22013KT 29/M02 A299 RMK A01 T02911020  RH  013%=      5-min Rain = 0
KEN1 242203Z 22018KT 29/M02 A299 RMK A01 T02921017  RH  013%=      5-min Rain = 0
KEN1 242204Z 20016KT 29/M03 A299 RMK A01 T02921027  RH  012%=      5-min Rain = 0
KEN1 242205Z 21018KT 29/M02 A299 RMK A01 T02911024  RH  013%=      5-min Rain = 0
KEN1 242206Z 21014KT 29/M02 A299 RMK A01 T02901020  RH  013%=      5-min Rain = 0
KEN1 242207Z 20016KT 29/M02 A299 RMK A01 T02901023  RH  013%=      5-min Rain = 0
KEN1 242208Z 21017KT 29/M02 A299 RMK A01 T02901016  RH  014%=      5-min Rain = 0
KEN1 242209Z 22018KT 29/M02 A299 RMK A01 T02921019  RH  013%=      5-min Rain = 0
KEN1 242210Z 22015KT 29/M02 A299 RMK A01 T02911021  RH  013%=      5-min Rain = 0
KEN1 242211Z 22016KT 29/M01 A299 RMK A01 T02901012  RH  014%=      5-min Rain = 0
KEN1 242212Z 22017KT 29/M02 A299 RMK A01 T02911020  RH  013%=      5-min Rain = 0
KEN1 242213Z 23012KT 29/M02 A299 RMK A01 T02901023  RH  013%=      5-min Rain = 0
KEN1 242214Z 21014KT 29/M02 A299 RMK A01 T02891021  RH  013%=      5-min Rain = 0
KEN1 242215Z 21014KT 29/M02 A299 RMK A01 T02891015  RH  014%=      5-min Rain = 0
KEN1 242216Z 20015KT 29/M01 A299 RMK A01 T02901012  RH  014%=      5-min Rain = 0
KEN1 242217Z 21012KT 29/M01 A299 RMK A01 T02911010  RH  014%=      5-min Rain = 0
KEN1 242218Z 21012KT 29/M01 A299 RMK A01 T02921014  RH  014%=      5-min Rain = 0
KEN1 242219Z 22010KT 29/M01 A299 RMK A01 T02921014  RH  014%=      5-min Rain = 0
KEN1 242220Z 22010KT 29/M02 A299 RMK A01 T02911016  RH  013%=      5-min Rain = 0
KEN1 242221Z 21011KT 29/M01 A299 RMK A01 T02911009  RH  014%=      5-min Rain = 0
KEN1 242222Z 21009KT 29/M02 A299 RMK A01 T02911023  RH  013%=      5-min Rain = 0
KEN1 242223Z 22009KT 29/M02 A299 RMK A01 T02901021  RH  013%=      5-min Rain = 0
KEN1 242224Z 23007KT 29/M03 A299 RMK A01 T02891027  RH  013%=      5-min Rain = 0
KEN1 242225Z 24007KT 29/M03 A299 RMK A01 T02881027  RH  013%=      5-min Rain = 0
KEN1 242226Z 23006KT 29/M04 A2989 RMK A01 T02871036  RH  012%=      5-min Rain = 0
KEN1 242227Z 20007KT 29/M02 A2989 RMK A01 T02861015  RH  014%=      5-min Rain = 0
KEN1 242228Z 19010KT 29/M03 A2989 RMK A01 T02871027  RH  013%=      5-min Rain = 0
KEN1 242229Z 20009KT 29/M02 A2989 RMK A01 T02871020  RH  013%=      5-min Rain = 0
KEN1 242230Z 21007KT 29/M02 A2989 RMK A01 T02881016  RH  014%=      5-min Rain = 0
KEN1 242231Z 22005KT 29/M03 A2989 RMK A01 T02881031  RH  012%=      5-min Rain = 0
KEN1 242232Z 23007G14KT 29/M02 A2989 RMK A01 T02881015  RH  014%=      5-min Rain = 0
KEN1 242233Z 23012KT 29/M02 A2989 RMK A01 T02891018  RH  014%=      5-min Rain = 0
KEN1 242234Z 22012KT 29/M02 A2989 RMK A01 T02891019  RH  013%=      5-min Rain = 0
KEN1 242235Z 22015KT 29/M01 A2989 RMK A01 T02921008  RH  014%=      5-min Rain = 0
KEN1 242236Z 23015KT 29/M02 A2989 RMK A01 T02931016  RH  013%=      5-min Rain = 0
KEN1 242237Z 23014KT 29/M02 A2989 RMK A01 T02921021  RH  013%=      5-min Rain = 0
KEN1 242238Z 23013KT 29/M02 A2989 RMK A01 T02911016  RH  014%=      5-min Rain = 0
KEN1 242239Z 22015KT 29/M02 A2989 RMK A01 T02911020  RH  013%=      5-min Rain = 0
KEN1 242240Z 22014KT 29/M02 A2989 RMK A01 T02911018  RH  013%=      5-min Rain = 0
KEN1 242241Z 22016KT 29/M02 A2989 RMK A01 T02911019  RH  013%=      5-min Rain = 0
KEN1 242242Z 22015KT 29/M02 A2989 RMK A01 T02911019  RH  013%=      5-min Rain = 0
KEN1 242243Z 22013KT 29/M02 A2989 RMK A01 T02911018  RH  013%=      5-min Rain = 0
KEN1 242244Z 23011KT 29/M02 A2989 RMK A01 T02901023  RH  013%=      5-min Rain = 0
KEN1 242245Z 24009KT 29/M02 A2989 RMK A01 T02891024  RH  013%=      5-min Rain = 0
KEN1 242246Z 22010G15KT 29/M01 A2989 RMK A01 T02891009  RH  014%=      5-min Rain = 0
KEN1 242247Z 22013KT 29/M01 A2989 RMK A01 T02921007  RH  014%=      5-min Rain = 0
KEN1 242248Z 22011KT 29/M02 A2989 RMK A01 T02921016  RH  013%=      5-min Rain = 0
KEN1 242249Z 22013G19KT 29/M01 A2989 RMK A01 T02921013  RH  014%=      5-min Rain = 0
KEN1 242250Z 23013KT 29/M02 A2989 RMK A01 T02921016  RH  013%=      5-min Rain = 0
KEN1 242251Z 24013KT 29/M02 A2989 RMK A01 T02921023  RH  013%=      5-min Rain = 0
KEN1 242252Z 25010KT 29/M02 A2989 RMK A01 T02911024  RH  013%=      5-min Rain = 0
KEN1 242253Z 23010KT 29/M01 A2989 RMK A01 T02911012  RH  014%=      5-min Rain = 0
KEN1 242254Z 23012KT 29/M01 A2989 RMK A01 T02921014  RH  014%=      5-min Rain = 0
KEN1 242255Z 22011KT 29/M01 A2989 RMK A01 T02921014  RH  014%=      5-min Rain = 0
KEN1 242256Z 22009KT 29/M01 A2989 RMK A01 T02931011  RH  014%=      5-min Rain = 0
KEN1 242257Z 22008KT 29/M02 A2989 RMK A01 T02921015  RH  013%=      5-min Rain = 0
KEN1 242258Z 22006KT 29/M03 A2989 RMK A01 T02911028  RH  012%=      5-min Rain = 0
KEN1 242259Z 22006KT 29/M01 A2989 RMK A01 T02901014  RH  014%=      5-min Rain = 0
KEN1 242300Z 23009KT 29/M01 A2989 RMK A01 T02901005  RH  015%=      5-min Rain = 0
KEN1 242301Z 23012KT 29/M01 A2989 RMK A01 T02921014  RH  014%=      5-min Rain = 0
KEN1 242302Z 24009KT 29/M03 A2988 RMK A01 T02911026  RH  013%=      5-min Rain = 0
KEN1 242303Z 23014KT 29/M02 A2988 RMK A01 T02901017  RH  013%=      5-min Rain = 0
KEN1 242304Z 23008G13KT 29/M03 A2988 RMK A01 T02911029  RH  012%=      5-min Rain = 0
KEN1 242305Z 24008KT 29/M03 A2988 RMK A01 T02881026  RH  013%=      5-min Rain = 0
KEN1 242306Z 22008KT 29/M03 A2988 RMK A01 T02881026  RH  013%=      5-min Rain = 0
KEN1 242307Z 21008KT 29/M01 A2988 RMK A01 T02891013  RH  014%=      5-min Rain = 0
KEN1 242308Z 19007KT 29/M01 A2988 RMK A01 T02901013  RH  014%=      5-min Rain = 0
KEN1 242309Z 20006KT 29/M03 A2988 RMK A01 T02911026  RH  013%=      5-min Rain = 0
KEN1 242310Z 21009KT 29/M01 A2988 RMK A01 T02911012  RH  014%=      5-min Rain = 0
KEN1 242311Z 20007KT 29/M03 A2988 RMK A01 T02911026  RH  013%=      5-min Rain = 0
KEN1 242312Z 21008KT 29/M02 A2988 RMK A01 T02901022  RH  013%=      5-min Rain = 0
KEN1 242313Z 23011KT 29/M02 A2988 RMK A01 T02901015  RH  014%=      5-min Rain = 0
KEN1 242314Z 22009KT 29/M03 A2988 RMK A01 T02901027  RH  013%=      5-min Rain = 0
KEN1 242315Z 23010KT 29/M02 A2988 RMK A01 T02891023  RH  013%=      5-min Rain = 0
KEN1 242316Z 24007KT 29/M03 A2988 RMK A01 T02891028  RH  013%=      5-min Rain = 0
KEN1 242317Z 23004KT 29/M03 A2987 RMK A01 T02881030  RH  012%=      5-min Rain = 0
KEN1 242318Z 24004KT 29/M03 A2987 RMK A01 T02881033  RH  012%=      5-min Rain = 0
KEN1 242319Z 21006KT 29/M02 A2987 RMK A01 T02891019  RH  013%=      5-min Rain = 0
KEN1 242320Z 21010KT 29/M01 A2987 RMK A01 T02901014  RH  014%=      5-min Rain = 0
KEN1 242321Z 23009KT 29/M02 A2987 RMK A01 T02901018  RH  013%=      5-min Rain = 0
KEN1 242322Z 21006KT 29/M02 A2988 RMK A01 T02901023  RH  013%=      5-min Rain = 0
KEN1 242323Z 20003KT 29/M03 A2987 RMK A01 T02891026  RH  013%=      5-min Rain = 0
KEN1 242324Z 23003G9KT 29/M03 A2987 RMK A01 T02891033  RH  012%=      5-min Rain = 0
KEN1 242325Z 22009KT 29/M01 A2987 RMK A01 T02901013  RH  014%=      5-min Rain = 0
KEN1 242326Z 23009KT 29/M02 A2987 RMK A01 T02911017  RH  013%=      5-min Rain = 0
KEN1 242327Z 22006KT 29/M02 A2987 RMK A01 T02911023  RH  013%=      5-min Rain = 0
KEN1 242328Z 23003KT 29/M02 A2987 RMK A01 T02911023  RH  013%=      5-min Rain = 0
KEN1 242329Z 21004KT 29/M02 A2987 RMK A01 T02901018  RH  013%=      5-min Rain = 0
KEN1 242330Z 21005KT 29/M02 A2987 RMK A01 T02911018  RH  013%=      5-min Rain = 0
KEN1 242331Z 19005KT 29/M02 A2987 RMK A01 T02911015  RH  014%=      5-min Rain = 0
KEN1 242332Z 19006KT 29/M01 A2987 RMK A01 T02911014  RH  014%=      5-min Rain = 0
KEN1 242333Z 20006KT 29/M02 A2987 RMK A01 T02911019  RH  013%=      5-min Rain = 0
KEN1 242334Z 19008G14KT 29/M01 A2987 RMK A01 T02911012  RH  014%=      5-min Rain = 0
KEN1 242335Z 19013KT 29/M01 A2987 RMK A01 T02911013  RH  014%=      5-min Rain = 0
KEN1 242336Z 19013KT 29/M02 A2987 RMK A01 T02921019  RH  013%=      5-min Rain = 0
KEN1 242337Z 19011KT 29/M02 A2987 RMK A01 T02921015  RH  014%=      5-min Rain = 0
KEN1 242338Z 19013KT 29/M02 A2987 RMK A01 T02931020  RH  013%=      5-min Rain = 0
KEN1 242339Z 21012KT 29/M02 A2987 RMK A01 T02921015  RH  013%=      5-min Rain = 0
KEN1 242340Z 21010KT 29/M01 A2987 RMK A01 T02921009  RH  014%=      5-min Rain = 0
KEN1 242341Z 21009KT 29/M01 A2987 RMK A01 T02931011  RH  014%=      5-min Rain = 0
KEN1 242342Z 21008KT 29/M01 A2987 RMK A01 T02931011  RH  014%=      5-min Rain = 0
KEN1 242343Z 20012KT 29/M01 A2987 RMK A01 T02931010  RH  014%=      5-min Rain = 0
KEN1 242344Z 18017KT 29/M02 A2987 RMK A01 T02931023  RH  013%=      5-min Rain = 0
KEN1 242345Z 19013KT 29/M03 A2987 RMK A01 T02921026  RH  012%=      5-min Rain = 0
KEN1 242346Z 19010KT 29/M02 A2987 RMK A01 T02911019  RH  013%=      5-min Rain = 0
KEN1 242347Z 18011KT 29/M02 A2986 RMK A01 T02911022  RH  013%=      5-min Rain = 0
KEN1 242348Z 19013KT 29/M02 A2986 RMK A01 T02911020  RH  013%=      5-min Rain = 0
KEN1 242349Z 20013KT 29/M01 A2986 RMK A01 T02921011  RH  014%=      5-min Rain = 0
KEN1 242350Z 20014KT 29/M01 A2986 RMK A01 T02931012  RH  014%=      5-min Rain = 0
KEN1 242351Z 20014KT 29/M02 A2986 RMK A01 T02931018  RH  013%=      5-min Rain = 0
KEN1 242352Z 20014KT 29/M02 A2986 RMK A01 T02931024  RH  013%=      5-min Rain = 0
KEN1 242353Z 20016KT 29/M02 A2986 RMK A01 T02921016  RH  013%=      5-min Rain = 0
KEN1 242354Z 20017KT 29/M02 A2986 RMK A01 T02921019  RH  013%=      5-min Rain = 0
KEN1 242355Z 21017KT 29/M02 A2986 RMK A01 T02921021  RH  013%=      5-min Rain = 0
KEN1 242356Z 21017KT 29/M02 A2986 RMK A01 T02921024  RH  013%=      5-min Rain = 0
KEN1 242357Z 20015KT 29/M02 A2986 RMK A01 T02911021  RH  013%=      5-min Rain = 0
KEN1 242358Z 21014KT 29/M03 A2986 RMK A01 T02911026  RH  012%=      5-min Rain = 0
KEN1 242359Z 20014KT 29/M02 A2986 RMK A01 T02911024  RH  013%=      5-min Rain = 0
KEN1 250000Z 20012KT 29/M02 A2986 RMK A01 T02911024  RH  013%=      5-min Rain = 0
KEN1 250001Z 19013KT 29/M03 A2986 RMK A01 T02901025  RH  013%=      5-min Rain = 0
KEN1 250002Z 20015KT 29/M02 A2986 RMK A01 T02901018  RH  013%=      5-min Rain = 0
KEN1 250003Z 20013KT 29/M02 A2986 RMK A01 T02901017  RH  013%=      5-min Rain = 0
KEN1 250004Z 21015KT 29/M02 A2986 RMK A01 T02911015  RH  014%=      5-min Rain = 0
KEN1 250005Z 21015KT 29/M02 A2986 RMK A01 T02911021  RH  013%=      5-min Rain = 0
KEN1 250006Z 20014KT 29/M02 A2986 RMK A01 T02911022  RH  013%=      5-min Rain = 0
KEN1 250007Z 20012KT 29/M02 A2986 RMK A01 T02901023  RH  013%=      5-min Rain = 0
KEN1 250008Z 20011KT 29/M02 A2986 RMK A01 T02901022  RH  013%=      5-min Rain = 0
KEN1 250009Z 19014KT 29/M02 A2985 RMK A01 T02891018  RH  013%=      5-min Rain = 0
KEN1 250010Z 21014KT 29/M01 A2986 RMK A01 T02901014  RH  014%=      5-min Rain = 0
KEN1 250011Z 21014KT 29/M02 A2986 RMK A01 T02901023  RH  013%=      5-min Rain = 0
KEN1 250012Z 20015KT 29/M02 A2986 RMK A01 T02901024  RH  013%=      5-min Rain = 0
KEN1 250013Z 20012KT 29/M02 A2986 RMK A01 T02891020  RH  013%=      5-min Rain = 0
KEN1 250014Z 20010KT 29/M01 A2986 RMK A01 T02891012  RH  014%=      5-min Rain = 0
KEN1 250015Z 19013KT 29/M02 A2985 RMK A01 T02891020  RH  013%=      5-min Rain = 0
KEN1 250016Z 21012KT 29/M02 A2985 RMK A01 T02891023  RH  013%=      5-min Rain = 0
KEN1 250017Z 21011KT 29/M02 A2985 RMK A01 T02891024  RH  013%=      5-min Rain = 0
KEN1 250018Z 20012G17KT 29/M02 A2985 RMK A01 T02891015  RH  014%=      5-min Rain = 0
KEN1 250019Z 21013KT 29/M01 A2986 RMK A01 T02891014  RH  014%=      5-min Rain = 0
KEN1 250020Z 21010KT 29/M01 A2986 RMK A01 T02891013  RH  014%=      5-min Rain = 0
KEN1 250021Z 21011KT 29/M01 A2986 RMK A01 T02891006  RH  015%=      5-min Rain = 0
KEN1 250022Z 21012KT 29/M02 A2986 RMK A01 T02891021  RH  013%=      5-min Rain = 0
KEN1 250023Z 21011KT 29/M02 A2985 RMK A01 T02891022  RH  013%=      5-min Rain = 0
KEN1 250024Z 21010KT 29/M03 A2985 RMK A01 T02891025  RH  013%=      5-min Rain = 0
KEN1 250025Z 20008KT 29/M02 A2985 RMK A01 T02891018  RH  013%=      5-min Rain = 0
KEN1 250026Z 20011KT 29/M01 A2985 RMK A01 T02891014  RH  014%=      5-min Rain = 0
KEN1 250027Z 21013KT 29/M01 A2985 RMK A01 T02891012  RH  014%=      5-min Rain = 0
KEN1 250028Z 21014KT 29/M02 A2985 RMK A01 T02891018  RH  013%=      5-min Rain = 0
KEN1 250029Z 21013KT 29/M02 A2985 RMK A01 T02891019  RH  013%=      5-min Rain = 0
KEN1 250030Z 21014KT 29/M02 A2985 RMK A01 T02891019  RH  013%=      5-min Rain = 0
KEN1 250031Z 21013KT 29/M02 A2985 RMK A01 T02881021  RH  013%=      5-min Rain = 0
KEN1 250032Z 21012KT 29/M01 A2985 RMK A01 T02881012  RH  014%=      5-min Rain = 0
KEN1 250033Z 21012KT 29/M01 A2985 RMK A01 T02881013  RH  014%=      5-min Rain = 0
KEN1 250034Z 21011KT 29/M01 A2985 RMK A01 T02881011  RH  014%=      5-min Rain = 0
KEN1 250035Z 21009KT 29/M01 A2986 RMK A01 T02881006  RH  015%=      5-min Rain = 0
KEN1 250036Z 21012KT 29/M01 A2985 RMK A01 T02871011  RH  014%=      5-min Rain = 0
KEN1 250037Z 21011KT 29/M01 A2986 RMK A01 T02871013  RH  014%=      5-min Rain = 0
KEN1 250038Z 21012KT 29/M01 A2986 RMK A01 T02871012  RH  014%=      5-min Rain = 0
KEN1 250039Z 21014KT 29/M02 A2985 RMK A01 T02871016  RH  014%=      5-min Rain = 0
KEN1 250040Z 21012KT 29/M02 A2985 RMK A01 T02861018  RH  014%=      5-min Rain = 0
KEN1 250041Z 21013KT 29/M01 A2985 RMK A01 T02861013  RH  014%=      5-min Rain = 0
KEN1 250042Z 21012KT 29/M02 A2985 RMK A01 T02851019  RH  014%=      5-min Rain = 0
KEN1 250043Z 21011KT 29/M02 A2985 RMK A01 T02851020  RH  014%=      5-min Rain = 0
KEN1 250044Z 21010KT 29/M01 A2985 RMK A01 T02851012  RH  014%=      5-min Rain = 0
KEN1 250045Z 21008KT 28/M01 A2985 RMK A01 T02841009  RH  015%=      5-min Rain = 0
KEN1 250046Z 21011KT 28/M01 A2985 RMK A01 T02831009  RH  015%=      5-min Rain = 0
KEN1 250047Z 21011KT 28/M01 A2985 RMK A01 T02831014  RH  014%=      5-min Rain = 0
KEN1 250048Z 21010KT 28/M01 A2985 RMK A01 T02831014  RH  014%=      5-min Rain = 0
KEN1 250049Z 21010KT 28/M01 A2985 RMK A01 T02831013  RH  014%=      5-min Rain = 0
KEN1 250050Z 21010KT 28/M01 A2985 RMK A01 T02831014  RH  014%=      5-min Rain = 0
KEN1 250051Z 21012KT 28/M02 A2985 RMK A01 T02831018  RH  014%=      5-min Rain = 0
KEN1 250052Z 21010G15KT 28/M01 A2985 RMK A01 T02831012  RH  015%=      5-min Rain = 0
KEN1 250053Z 21013KT 28/M01 A2985 RMK A01 T02821014  RH  014%=      5-min Rain = 0
KEN1 250054Z 21012KT 28/M02 A2985 RMK A01 T02821015  RH  014%=      5-min Rain = 0
KEN1 250055Z 21010G15KT 28/M01 A2985 RMK A01 T02811009  RH  015%=      5-min Rain = 0
KEN1 250056Z 21013KT 28/M01 A2985 RMK A01 T02801011  RH  015%=      5-min Rain = 0
KEN1 250057Z 21012KT 28/M02 A2985 RMK A01 T02791016  RH  014%=      5-min Rain = 0
KEN1 250058Z 21012KT 28/M01 A2985 RMK A01 T02791012  RH  015%=      5-min Rain = 0
KEN1 250059Z 21013KT 28/M02 A2985 RMK A01 T02791017  RH  014%=      5-min Rain = 0
KEN1 250100Z 21014KT 28/M02 A2985 RMK A01 T02791024  RH  014%=      5-min Rain = 0
KEN1 250101Z 21013KT 28/M02 A2985 RMK A01 T02791020  RH  014%=      5-min Rain = 0
KEN1 250102Z 21013KT 28/M02 A2985 RMK A01 T02791020  RH  014%=      5-min Rain = 0
KEN1 250103Z 21011KT 28/M02 A2985 RMK A01 T02791017  RH  014%=      5-min Rain = 0
KEN1 250104Z 21012KT 28/M01 A2985 RMK A01 T02781014  RH  015%=      5-min Rain = 0
KEN1 250105Z 21011KT 28/M01 A2985 RMK A01 T02771014  RH  015%=      5-min Rain = 0
KEN1 250106Z 21012KT 28/M02 A2985 RMK A01 T02761015  RH  015%=      5-min Rain = 0
KEN1 250107Z 21011KT 28/M02 A2985 RMK A01 T02761015  RH  015%=      5-min Rain = 0
KEN1 250108Z 21010KT 28/M01 A2985 RMK A01 T02751011  RH  015%=      5-min Rain = 0
KEN1 250109Z 21010KT 27/M01 A2985 RMK A01 T02741009  RH  016%=      5-min Rain = 0
KEN1 250110Z 21010KT 27/M01 A2986 RMK A01 T02741009  RH  016%=      5-min Rain = 0
KEN1 250111Z 22010KT 27/M01 A2986 RMK A01 T02731011  RH  016%=      5-min Rain = 0
KEN1 250112Z 21010KT 27/M01 A2986 RMK A01 T02731011  RH  016%=      5-min Rain = 0
KEN1 250113Z 21011KT 27/M01 A2986 RMK A01 T02721007  RH  016%=      5-min Rain = 0
KEN1 250114Z 21009KT 27/M01 A2986 RMK A01 T02711009  RH  016%=      5-min Rain = 0
KEN1 250115Z 21011KT 27/M01 A2986 RMK A01 T02701009  RH  016%=      5-min Rain = 0
KEN1 250116Z 21010KT 27/M01 A2986 RMK A01 T02701011  RH  016%=      5-min Rain = 0
KEN1 250117Z 21009KT 27/M01 A2986 RMK A01 T02701006  RH  016%=      5-min Rain = 0
KEN1 250118Z 21010KT 27/M01 A2986 RMK A01 T02691005  RH  017%=      5-min Rain = 0
KEN1 250119Z 21009KT 27/M01 A2986 RMK A01 T02681006  RH  017%=      5-min Rain = 0
KEN1 250120Z 21009KT 27/M01 A2986 RMK A01 T02671006  RH  017%=      5-min Rain = 0
KEN1 250121Z 21009KT 27/M01 A2986 RMK A01 T02671005  RH  017%=      5-min Rain = 0
KEN1 250122Z 21008KT 27/M00 A2986 RMK A01 T02651001  RH  017%=      5-min Rain = 0
KEN1 250123Z 20009KT 26/M00 A2986 RMK A01 T02641001  RH  018%=      5-min Rain = 0
KEN1 250124Z 20008KT 26/M00 A2986 RMK A01 T02631001  RH  018%=      5-min Rain = 0
KEN1 250125Z 20009KT 26/M00 A2986 RMK A01 T02621001  RH  018%=      5-min Rain = 0
KEN1 250126Z 20009KT 26/00 A2986 RMK A01 T02610001  RH  018%=      5-min Rain = 0
KEN1 250127Z 20008KT 26/00 A2986 RMK A01 T02600002  RH  018%=      5-min Rain = 0
KEN1 250128Z 20008KT 26/00 A2986 RMK A01 T02580004  RH  019%=      5-min Rain = 0
KEN1 250129Z 20008KT 26/01 A2986 RMK A01 T02570005  RH  019%=      5-min Rain = 0
KEN1 250130Z 20009KT 26/01 A2986 RMK A01 T02550006  RH  020%=      5-min Rain = 0
KEN1 250131Z 20009KT 25/01 A2986 RMK A01 T02530005  RH  020%=      5-min Rain = 0
KEN1 250132Z 20008KT 25/00 A2986 RMK A01 T02530004  RH  020%=      5-min Rain = 0
KEN1 250133Z 20008KT 25/00 A2986 RMK A01 T02520004  RH  020%=      5-min Rain = 0
KEN1 250134Z 20009KT 25/01 A2986 RMK A01 T02510007  RH  020%=      5-min Rain = 0
KEN1 250135Z 20009KT 25/01 A2986 RMK A01 T02490005  RH  020%=      5-min Rain = 0
KEN1 250136Z 20008KT 25/01 A2986 RMK A01 T02490006  RH  020%=      5-min Rain = 0
KEN1 250137Z 20008KT 25/01 A2986 RMK A01 T02470007  RH  021%=      5-min Rain = 0
KEN1 250138Z 20008KT 25/01 A2986 RMK A01 T02460009  RH  021%=      5-min Rain = 0
KEN1 250139Z 20008KT 24/01 A2986 RMK A01 T02440010  RH  021%=      5-min Rain = 0
KEN1 250140Z 20009KT 24/01 A2986 RMK A01 T02420011  RH  022%=      5-min Rain = 0
KEN1 250141Z 20009KT 24/01 A2986 RMK A01 T02400011  RH  022%=      5-min Rain = 0
KEN1 250142Z 20009KT 24/01 A2986 RMK A01 T02390009  RH  022%=      5-min Rain = 0
KEN1 250143Z 20009KT 24/01 A2986 RMK A01 T02390009  RH  022%=      5-min Rain = 0
KEN1 250144Z 21009KT 24/01 A2986 RMK A01 T02380010  RH  022%=      5-min Rain = 0
KEN1 250145Z 20009KT 24/01 A2986 RMK A01 T02370009  RH  022%=      5-min Rain = 0
KEN1 250146Z 20009KT 24/01 A2987 RMK A01 T02360009  RH  022%=      5-min Rain = 0
KEN1 250147Z 20009KT 24/01 A2987 RMK A01 T02360009  RH  022%=      5-min Rain = 0
KEN1 250148Z 20009KT 24/01 A2987 RMK A01 T02360009  RH  023%=      5-min Rain = 0
KEN1 250149Z 20009KT 24/01 A2987 RMK A01 T02350010  RH  023%=      5-min Rain = 0
KEN1 250150Z 20009KT 23/01 A2987 RMK A01 T02330010  RH  023%=      5-min Rain = 0
KEN1 250151Z 20009KT 23/01 A2987 RMK A01 T02320010  RH  023%=      5-min Rain = 0
KEN1 250152Z 20009KT 23/01 A2987 RMK A01 T02320011  RH  023%=      5-min Rain = 0
KEN1 250153Z 20009KT 23/01 A2987 RMK A01 T02300011  RH  024%=      5-min Rain = 0
KEN1 250154Z 20009KT 23/01 A2987 RMK A01 T02280011  RH  024%=      5-min Rain = 0
KEN1 250155Z 20010KT 23/01 A2987 RMK A01 T02280011  RH  024%=      5-min Rain = 0
KEN1 250156Z 20010KT 23/01 A2987 RMK A01 T02270011  RH  024%=      5-min Rain = 0
KEN1 250157Z 20010KT 23/01 A2987 RMK A01 T02260011  RH  024%=      5-min Rain = 0
KEN1 250158Z 20010KT 22/01 A2987 RMK A01 T02240011  RH  024%=      5-min Rain = 0
KEN1 250159Z 20010KT 22/01 A2987 RMK A01 T02240010  RH  024%=      5-min Rain = 0
KEN1 250200Z 19010KT 22/01 A2987 RMK A01 T02230009  RH  024%=      5-min Rain = 0
KEN1 250201Z 20011KT 22/01 A2987 RMK A01 T02230008  RH  024%=      5-min Rain = 0
KEN1 250202Z 20010KT 22/01 A2987 RMK A01 T02230005  RH  024%=      5-min Rain = 0
KEN1 250203Z 20010KT 22/00 A2987 RMK A01 T02240004  RH  023%=      5-min Rain = 0
KEN1 250204Z 20010KT 23/01 A2988 RMK A01 T02250005  RH  023%=      5-min Rain = 0
KEN1 250205Z 19009KT 23/01 A2988 RMK A01 T02250005  RH  023%=      5-min Rain = 0
KEN1 250206Z 20009KT 22/01 A2988 RMK A01 T02240005  RH  023%=      5-min Rain = 0
KEN1 250207Z 20009KT 22/01 A2988 RMK A01 T02230006  RH  024%=      5-min Rain = 0
KEN1 250208Z 19009KT 22/01 A2988 RMK A01 T02220006  RH  024%=      5-min Rain = 0
KEN1 250209Z 19009KT 22/01 A2988 RMK A01 T02200008  RH  024%=      5-min Rain = 0
KEN1 250210Z 19007KT 22/01 A2988 RMK A01 T02180011  RH  025%=      5-min Rain = 0
KEN1 250211Z 19008KT 22/01 A2988 RMK A01 T02150011  RH  026%=      5-min Rain = 0
KEN1 250212Z 18008KT 21/01 A2988 RMK A01 T02120010  RH  026%=      5-min Rain = 0
KEN1 250213Z 18009KT 21/01 A2988 RMK A01 T02110009  RH  026%=      5-min Rain = 0
KEN1 250214Z 19009KT 21/01 A2988 RMK A01 T02100007  RH  026%=      5-min Rain = 0
KEN1 250215Z 19009KT 21/01 A2988 RMK A01 T02100005  RH  026%=      5-min Rain = 0
KEN1 250216Z 19008KT 21/01 A2989 RMK A01 T02100005  RH  025%=      5-min Rain = 0
KEN1 250217Z 19009KT 21/00 A2989 RMK A01 T02100004  RH  025%=      5-min Rain = 0
KEN1 250218Z 18009KT 21/00 A2989 RMK A01 T02110002  RH  025%=      5-min Rain = 0
KEN1 250219Z 18009KT 21/00 A2989 RMK A01 T02120003  RH  025%=      5-min Rain = 0
KEN1 250220Z 18009KT 21/00 A2989 RMK A01 T02120003  RH  025%=      5-min Rain = 0
KEN1 250221Z 18009KT 21/00 A2989 RMK A01 T02110004  RH  025%=      5-min Rain = 0
KEN1 250222Z 18009KT 21/00 A2989 RMK A01 T02090002  RH  025%=      5-min Rain = 0
KEN1 250223Z 18009KT 21/00 A2989 RMK A01 T02080002  RH  025%=      5-min Rain = 0
KEN1 250224Z 18010KT 21/01 A2989 RMK A01 T02060005  RH  026%=      5-min Rain = 0
KEN1 250225Z 18009KT 20/01 A2989 RMK A01 T02030005  RH  027%=      5-min Rain = 0
KEN1 250226Z 18010KT 20/00 A2989 RMK A01 T02010004  RH  027%=      5-min Rain = 0
KEN1 250227Z 18010KT 20/00 A2989 RMK A01 T02000004  RH  027%=      5-min Rain = 0
KEN1 250228Z 18010KT 20/00 A2989 RMK A01 T01990003  RH  027%=      5-min Rain = 0
KEN1 250229Z 18010KT 20/00 A2989 RMK A01 T01980002  RH  027%=      5-min Rain = 0
KEN1 250230Z 18010KT 20/M00 A2989 RMK A01 T01991001  RH  026%=      5-min Rain = 0
KEN1 250231Z 18010KT 20/M00 A2989 RMK A01 T02011001  RH  026%=      5-min Rain = 0
KEN1 250232Z 18010KT 20/M00 A299 RMK A01 T02011002  RH  026%=      5-min Rain = 0
KEN1 250233Z 18010KT 20/M00 A299 RMK A01 T02021002  RH  026%=      5-min Rain = 0
KEN1 250234Z 18010KT 20/M00 A299 RMK A01 T02021001  RH  026%=      5-min Rain = 0
KEN1 250235Z 18010KT 20/00 A299 RMK A01 T02000001  RH  026%=      5-min Rain = 0
KEN1 250236Z 18010KT 20/00 A299 RMK A01 T01980002  RH  027%=      5-min Rain = 0
KEN1 250237Z 18010KT 20/00 A299 RMK A01 T01960002  RH  027%=      5-min Rain = 0
KEN1 250238Z 18010KT 19/00 A299 RMK A01 T01940003  RH  028%=      5-min Rain = 0
KEN1 250239Z 18010KT 19/00 A299 RMK A01 T01930003  RH  028%=      5-min Rain = 0
KEN1 250240Z 18010KT 19/00 A299 RMK A01 T01920003  RH  028%=      5-min Rain = 0
KEN1 250241Z 18010KT 19/00 A299 RMK A01 T01910003  RH  028%=      5-min Rain = 0
KEN1 250242Z 17009KT 19/00 A299 RMK A01 T01900004  RH  029%=      5-min Rain = 0
KEN1 250243Z 17009KT 19/01 A299 RMK A01 T01890006  RH  029%=      5-min Rain = 0
KEN1 250244Z 17008KT 19/01 A299 RMK A01 T01870007  RH  030%=      5-min Rain = 0
KEN1 250245Z 16008KT 19/01 A299 RMK A01 T01850007  RH  030%=      5-min Rain = 0
KEN1 250246Z 15007KT 18/01 A299 RMK A01 T01830008  RH  031%=      5-min Rain = 0
KEN1 250247Z 15007KT 18/01 A299 RMK A01 T01810010  RH  032%=      5-min Rain = 0
KEN1 250248Z 15007KT 18/01 A299 RMK A01 T01800010  RH  032%=      5-min Rain = 0
KEN1 250249Z 15007KT 18/01 A299 RMK A01 T01790010  RH  032%=      5-min Rain = 0
KEN1 250250Z 15007KT 18/01 A299 RMK A01 T01780008  RH  032%=      5-min Rain = 0
KEN1 250251Z 15007KT 18/01 A299 RMK A01 T01770008  RH  032%=      5-min Rain = 0
KEN1 250252Z 14006KT 18/01 A299 RMK A01 T01760008  RH  032%=      5-min Rain = 0
KEN1 250253Z 14006KT 18/01 A299 RMK A01 T01750008  RH  032%=      5-min Rain = 0
KEN1 250254Z 15006KT 17/01 A299 RMK A01 T01740008  RH  033%=      5-min Rain = 0
KEN1 250255Z 15007KT 17/01 A299 RMK A01 T01740008  RH  033%=      5-min Rain = 0
KEN1 250256Z 15007KT 17/01 A299 RMK A01 T01740008  RH  033%=      5-min Rain = 0
KEN1 250257Z 15007KT 17/01 A299 RMK A01 T01740008  RH  033%=      5-min Rain = 0
KEN1 250258Z 15007KT 17/01 A299 RMK A01 T01740009  RH  033%=      5-min Rain = 0
KEN1 250259Z 15007KT 17/01 A299 RMK A01 T01740010  RH  033%=      5-min Rain = 0
KEN1 250300Z 14006KT 17/01 A299 RMK A01 T01740009  RH  033%=      5-min Rain = 0
KEN1 250301Z 14006KT 17/01 A299 RMK A01 T01730009  RH  033%=      5-min Rain = 0
KEN1 250302Z 14006KT 17/01 A299 RMK A01 T01730011  RH  034%=      5-min Rain = 0
KEN1 250303Z 15006KT 17/01 A299 RMK A01 T01710013  RH  034%=      5-min Rain = 0
KEN1 250304Z 15007KT 17/01 A299 RMK A01 T01700012  RH  034%=      5-min Rain = 0
KEN1 250305Z 15008KT 17/01 A299 RMK A01 T01690013  RH  035%=      5-min Rain = 0
KEN1 250306Z 14008KT 17/01 A299 RMK A01 T01680014  RH  035%=      5-min Rain = 0
KEN1 250307Z 15008KT 17/01 A299 RMK A01 T01680013  RH  035%=      5-min Rain = 0
KEN1 250308Z 15008KT 17/01 A299 RMK A01 T01680012  RH  035%=      5-min Rain = 0
KEN1 250309Z 15007KT 17/01 A299 RMK A01 T01690011  RH  034%=      5-min Rain = 0
KEN1 250310Z 15008KT 17/01 A299 RMK A01 T01690011  RH  034%=      5-min Rain = 0
KEN1 250311Z 15008KT 17/01 A299 RMK A01 T01700009  RH  034%=      5-min Rain = 0
KEN1 250312Z 15007KT 17/01 A299 RMK A01 T01710009  RH  033%=      5-min Rain = 0
KEN1 250313Z 15007KT 17/01 A299 RMK A01 T01720008  RH  033%=      5-min Rain = 0
KEN1 250314Z 15007KT 17/01 A299 RMK A01 T01720008  RH  033%=      5-min Rain = 0
KEN1 250315Z 14007KT 17/01 A299 RMK A01 T01720009  RH  033%=      5-min Rain = 0
KEN1 250316Z 15007KT 17/01 A299 RMK A01 T01720010  RH  033%=      5-min Rain = 0
KEN1 250317Z 15007KT 17/01 A299 RMK A01 T01710010  RH  034%=      5-min Rain = 0
KEN1 250318Z 14008KT 17/01 A299 RMK A01 T01700011  RH  034%=      5-min Rain = 0
KEN1 250319Z 13012KT 17/01 A2991 RMK A01 T01680011  RH  034%=      5-min Rain = 0
KEN1 250320Z 13016KT 17/01 A2991 RMK A01 T01680011  RH  035%=      5-min Rain = 0
KEN1 250321Z 13012KT 18/04 A2991 RMK A01 T01760039  RH  040%=      5-min Rain = 0
KEN1 250322Z 14010KT 18/05 A2991 RMK A01 T01810045  RH  041%=      5-min Rain = 0
KEN1 250323Z 14013KT 18/05 A2991 RMK A01 T01810049  RH  042%=      5-min Rain = 0
KEN1 250324Z 14012KT 18/05 A2991 RMK A01 T01810051  RH  042%=      5-min Rain = 0
KEN1 250325Z 13011KT 18/07 A2991 RMK A01 T01800069  RH  048%=      5-min Rain = 0
KEN1 250326Z 14011KT 18/08 A2991 RMK A01 T01810081  RH  052%=      5-min Rain = 0
KEN1 250327Z 14013G18KT 18/10 A2991 RMK A01 T01810098  RH  058%=      5-min Rain = 0
KEN1 250328Z 14017KT 19/12 A2991 RMK A01 T01850122  RH  066%=      5-min Rain = 0
KEN1 250329Z 14016KT 19/13 A2991 RMK A01 T01910128  RH  067%=      5-min Rain = 0
KEN1 250330Z 14016KT 19/13 A2991 RMK A01 T01940130  RH  066%=      5-min Rain = 0
KEN1 250331Z 14014KT 20/13 A2991 RMK A01 T01950132  RH  067%=      5-min Rain = 0
KEN1 250332Z 15018KT 20/13 A2991 RMK A01 T01960133  RH  067%=      5-min Rain = 0
KEN1 250333Z 14020KT 20/14 A2991 RMK A01 T01960136  RH  068%=      5-min Rain = 0
KEN1 250334Z 15020KT 20/14 A2991 RMK A01 T01970137  RH  068%=      5-min Rain = 0
KEN1 250335Z 14021KT 20/14 A2991 RMK A01 T01970138  RH  069%=      5-min Rain = 0
KEN1 250336Z 15020KT 20/14 A2991 RMK A01 T01960138  RH  069%=      5-min Rain = 0
KEN1 250337Z 15019KT 20/14 A2992 RMK A01 T01960139  RH  069%=      5-min Rain = 0
KEN1 250338Z 14019G24KT 20/14 A2992 RMK A01 T01950139  RH  070%=      5-min Rain = 0
KEN1 250339Z 14019G25KT 19/14 A2992 RMK A01 T01940139  RH  071%=      5-min Rain = 0
KEN1 250340Z 14021KT 19/14 A2992 RMK A01 T01930140  RH  071%=      5-min Rain = 0
KEN1 250341Z 14020KT 19/14 A2992 RMK A01 T01930140  RH  071%=      5-min Rain = 0
KEN1 250342Z 14018KT 19/14 A2992 RMK A01 T01920140  RH  072%=      5-min Rain = 0
KEN1 250343Z 14020KT 19/14 A2992 RMK A01 T01920140  RH  072%=      5-min Rain = 0
KEN1 250344Z 14018KT 19/14 A2992 RMK A01 T01910140  RH  072%=      5-min Rain = 0
KEN1 250345Z 14018KT 19/14 A2992 RMK A01 T01900140  RH  073%=      5-min Rain = 0
KEN1 250346Z 14019KT 19/14 A2992 RMK A01 T01900140  RH  073%=      5-min Rain = 0
KEN1 250347Z 14018KT 19/14 A2992 RMK A01 T01890140  RH  073%=      5-min Rain = 0
KEN1 250348Z 14018KT 19/14 A2992 RMK A01 T01890139  RH  073%=      5-min Rain = 0
KEN1 250349Z 14016KT 19/14 A2992 RMK A01 T01880139  RH  073%=      5-min Rain = 0
KEN1 250350Z 14018G23KT 19/14 A2992 RMK A01 T01870139  RH  074%=      5-min Rain = 0
KEN1 250351Z 14018KT 19/14 A2992 RMK A01 T01870139  RH  074%=      5-min Rain = 0
KEN1 250352Z 14017KT 19/14 A2992 RMK A01 T01860139  RH  074%=      5-min Rain = 0
KEN1 250353Z 14015KT 19/14 A2992 RMK A01 T01860139  RH  074%=      5-min Rain = 0
KEN1 250354Z 15016KT 19/14 A2992 RMK A01 T01850138  RH  074%=      5-min Rain = 0
KEN1 250355Z 15017KT 19/14 A2992 RMK A01 T01850139  RH  074%=      5-min Rain = 0
KEN1 250356Z 15015KT 19/14 A2992 RMK A01 T01850139  RH  075%=      5-min Rain = 0
KEN1 250357Z 15014KT 18/14 A2992 RMK A01 T01840138  RH  075%=      5-min Rain = 0
KEN1 250358Z 15014KT 18/14 A2992 RMK A01 T01830138  RH  075%=      5-min Rain = 0
KEN1 250359Z 15014KT 18/14 A2992 RMK A01 T01830138  RH  075%=      5-min Rain = 0
KEN1 250400Z 15013KT 18/14 A2992 RMK A01 T01820137  RH  075%=      5-min Rain = 0
KEN1 250401Z 15014KT 18/14 A2993 RMK A01 T01820137  RH  075%=      5-min Rain = 0
KEN1 250402Z 15015KT 18/14 A2993 RMK A01 T01820137  RH  075%=      5-min Rain = 0
KEN1 250403Z 15015KT 18/14 A2993 RMK A01 T01820137  RH  075%=      5-min Rain = 0
KEN1 250404Z 15015KT 18/14 A2993 RMK A01 T01820136  RH  075%=      5-min Rain = 0
KEN1 250405Z 15014KT 18/14 A2993 RMK A01 T01820136  RH  074%=      5-min Rain = 0
KEN1 250406Z 15013KT 18/14 A2993 RMK A01 T01820135  RH  074%=      5-min Rain = 0
KEN1 250407Z 15013KT 18/14 A2993 RMK A01 T01820135  RH  074%=      5-min Rain = 0
KEN1 250408Z 15013KT 18/14 A2993 RMK A01 T01810135  RH  074%=      5-min Rain = 0
KEN1 250409Z 15014KT 18/13 A2993 RMK A01 T01810134  RH  074%=      5-min Rain = 0
KEN1 250410Z 15014KT 18/14 A2993 RMK A01 T01810135  RH  074%=      5-min Rain = 0
KEN1 250411Z 15015KT 18/14 A2993 RMK A01 T01830136  RH  074%=      5-min Rain = 0
KEN1 250412Z 16016KT 18/14 A2993 RMK A01 T01840136  RH  074%=      5-min Rain = 0
KEN1 250413Z 16013KT 18/14 A2993 RMK A01 T01840136  RH  073%=      5-min Rain = 0
KEN1 250414Z 16014KT 18/14 A2993 RMK A01 T01840136  RH  074%=      5-min Rain = 0
KEN1 250415Z 16015KT 18/14 A2993 RMK A01 T01840137  RH  074%=      5-min Rain = 0
KEN1 250416Z 16014KT 18/14 A2993 RMK A01 T01840137  RH  074%=      5-min Rain = 0
KEN1 250417Z 16015KT 18/14 A2993 RMK A01 T01840137  RH  074%=      5-min Rain = 0
KEN1 250418Z 16015KT 18/14 A2993 RMK A01 T01840137  RH  074%=      5-min Rain = 0
KEN1 250419Z 15018KT 18/14 A2993 RMK A01 T01840138  RH  075%=      5-min Rain = 0
KEN1 250420Z 15015KT 18/14 A2993 RMK A01 T01840138  RH  075%=      5-min Rain = 0
KEN1 250421Z 16016KT 18/14 A2993 RMK A01 T01840138  RH  075%=      5-min Rain = 0
KEN1 250422Z 16015KT 18/14 A2994 RMK A01 T01830138  RH  075%=      5-min Rain = 0
KEN1 250423Z 16016KT 18/14 A2993 RMK A01 T01830139  RH  075%=      5-min Rain = 0
KEN1 250424Z 16015KT 18/14 A2993 RMK A01 T01830139  RH  076%=      5-min Rain = 0
KEN1 250425Z 16016KT 18/14 A2994 RMK A01 T01820140  RH  076%=      5-min Rain = 0
KEN1 250426Z 15016KT 18/14 A2994 RMK A01 T01820140  RH  076%=      5-min Rain = 0
KEN1 250427Z 16015G20KT 18/14 A2994 RMK A01 T01820141  RH  077%=      5-min Rain = 0
KEN1 250428Z 16017KT 18/14 A2994 RMK A01 T01820141  RH  077%=      5-min Rain = 0
KEN1 250429Z 16016KT 18/14 A2994 RMK A01 T01820141  RH  077%=      5-min Rain = 0
KEN1 250430Z 16016KT 18/14 A2994 RMK A01 T01820141  RH  077%=      5-min Rain = 0
KEN1 250431Z 16016KT 18/14 A2994 RMK A01 T01820142  RH  077%=      5-min Rain = 0
KEN1 250432Z 16015KT 18/14 A2994 RMK A01 T01820143  RH  078%=      5-min Rain = 0
KEN1 250433Z 16015KT 18/14 A2994 RMK A01 T01820143  RH  078%=      5-min Rain = 0
KEN1 250434Z 16015KT 18/14 A2994 RMK A01 T01820143  RH  078%=      5-min Rain = 0
KEN1 250435Z 16017KT 18/14 A2994 RMK A01 T01820143  RH  078%=      5-min Rain = 0
KEN1 250436Z 16016KT 18/14 A2994 RMK A01 T01820144  RH  078%=      5-min Rain = 0
KEN1 250437Z 16016KT 18/14 A2994 RMK A01 T01810144  RH  079%=      5-min Rain = 0
KEN1 250438Z 16014KT 18/15 A2994 RMK A01 T01820145  RH  079%=      5-min Rain = 0
KEN1 250439Z 16015KT 18/14 A2994 RMK A01 T01810144  RH  079%=      5-min Rain = 0
KEN1 250440Z 16015KT 18/15 A2994 RMK A01 T01810145  RH  080%=      5-min Rain = 0
KEN1 250441Z 15014KT 18/15 A2994 RMK A01 T01810145  RH  080%=      5-min Rain = 0
KEN1 250442Z 15015KT 18/15 A2994 RMK A01 T01810146  RH  080%=      5-min Rain = 0
KEN1 250443Z 16015KT 18/15 A2994 RMK A01 T01810146  RH  080%=      5-min Rain = 0
KEN1 250444Z 15014KT 18/15 A2994 RMK A01 T01810147  RH  080%=      5-min Rain = 0
KEN1 250445Z 15015KT 18/15 A2994 RMK A01 T01810147  RH  081%=      5-min Rain = 0
KEN1 250446Z 15015KT 18/15 A2994 RMK A01 T01810148  RH  081%=      5-min Rain = 0
KEN1 250447Z 15014KT 18/15 A2994 RMK A01 T01810147  RH  081%=      5-min Rain = 0
KEN1 250448Z 15013KT 18/15 A2994 RMK A01 T01810148  RH  081%=      5-min Rain = 0
KEN1 250449Z 15013KT 18/15 A2994 RMK A01 T01810148  RH  081%=      5-min Rain = 0
KEN1 250450Z 15016KT 18/15 A2994 RMK A01 T01810149  RH  081%=      5-min Rain = 0
KEN1 250451Z 15015KT 18/15 A2994 RMK A01 T01820150  RH  082%=      5-min Rain = 0
KEN1 250452Z 15015KT 18/15 A2994 RMK A01 T01830150  RH  081%=      5-min Rain = 0
KEN1 250453Z 15014KT 18/15 A2994 RMK A01 T01830150  RH  081%=      5-min Rain = 0
KEN1 250454Z 15015KT 18/15 A2994 RMK A01 T01830151  RH  082%=      5-min Rain = 0
KEN1 250455Z 15016KT 18/15 A2994 RMK A01 T01830152  RH  082%=      5-min Rain = 0
KEN1 250456Z 15015G20KT 18/15 A2994 RMK A01 T01840153  RH  082%=      5-min Rain = 0
KEN1 250457Z 15017KT 19/15 A2994 RMK A01 T01850153  RH  082%=      5-min Rain = 0
KEN1 250458Z 15017KT 19/15 A2994 RMK A01 T01850154  RH  082%=      5-min Rain = 0
KEN1 250459Z 15016KT 19/15 A2994 RMK A01 T01860154  RH  082%=      5-min Rain = 0

Page generated in 0.1257 seconds.